<?xml version="1.0" encoding="UTF-8" standalone="no" ?>
<gpx xmlns="http://www.topografix.com/GPX/1/1" xmlns:xsi="http://www.w3.org/2001/XMLSchema-instance" xsi:schemaLocation="http://www.topografix.com/GPX/1/1 http://www.topografix.com/GPX/1/1/gpx.xsd" version="1.1" creator="VisuGPX - https://www.visugpx.com">
  <metadata>
    <name>I la Batie a Chorges</name>
    <desc><![CDATA[Total: 159.6km]]></desc>
  </metadata>
  <trk>
    <name><![CDATA[9225242-1200K Augustus après Gréoux]]></name>
    <desc><![CDATA[Total: 159.6km]]></desc>
    <trkseg>
      <trkpt lat="44.30862" lon="5.38658">
        <ele>779</ele>
        <time>2018-10-18T08:55:06Z</time>
      </trkpt>
      <trkpt lat="44.30847" lon="5.38883">
        <ele>790</ele>
        <time>2018-10-18T08:56:06Z</time>
      </trkpt>
      <trkpt lat="44.30913" lon="5.39097">
        <ele>806</ele>
        <time>2018-10-18T08:57:06Z</time>
      </trkpt>
      <trkpt lat="44.3104" lon="5.39153">
        <ele>826</ele>
        <time>2018-10-18T08:58:06Z</time>
      </trkpt>
      <trkpt lat="44.31022" lon="5.39342">
        <ele>834</ele>
        <time>2018-10-18T08:59:06Z</time>
      </trkpt>
      <trkpt lat="44.31066" lon="5.39449">
        <ele>843</ele>
        <time>2018-10-18T09:00:06Z</time>
      </trkpt>
      <trkpt lat="44.31092" lon="5.39893">
        <ele>868</ele>
        <time>2018-10-18T09:01:06Z</time>
      </trkpt>
      <trkpt lat="44.3126" lon="5.39934">
        <ele>892</ele>
        <time>2018-10-18T09:02:06Z</time>
      </trkpt>
      <trkpt lat="44.31296" lon="5.40031">
        <ele>878</ele>
        <time>2018-10-18T09:03:06Z</time>
      </trkpt>
      <trkpt lat="44.31442" lon="5.40061">
        <ele>924</ele>
        <time>2018-10-18T09:04:06Z</time>
      </trkpt>
      <trkpt lat="44.31574" lon="5.40255">
        <ele>922</ele>
        <time>2018-10-18T09:05:06Z</time>
      </trkpt>
      <trkpt lat="44.31734" lon="5.40352">
        <ele>947</ele>
        <time>2018-10-18T09:06:06Z</time>
      </trkpt>
      <trkpt lat="44.318" lon="5.40577">
        <ele>964</ele>
        <time>2018-10-18T09:07:06Z</time>
      </trkpt>
      <trkpt lat="44.31709" lon="5.40485">
        <ele>958</ele>
        <time>2018-10-18T09:08:06Z</time>
      </trkpt>
      <trkpt lat="44.31793" lon="5.40648">
        <ele>975</ele>
        <time>2018-10-18T09:09:06Z</time>
      </trkpt>
      <trkpt lat="44.31804" lon="5.40832">
        <ele>997</ele>
        <time>2018-10-18T09:10:06Z</time>
      </trkpt>
      <trkpt lat="44.31643" lon="5.40541">
        <ele>990</ele>
        <time>2018-10-18T09:11:06Z</time>
      </trkpt>
      <trkpt lat="44.31687" lon="5.40684">
        <ele>1023</ele>
        <time>2018-10-18T09:12:06Z</time>
      </trkpt>
      <trkpt lat="44.31687" lon="5.40893">
        <ele>1046</ele>
        <time>2018-10-18T09:13:06Z</time>
      </trkpt>
      <trkpt lat="44.31606" lon="5.40689">
        <ele>1044</ele>
        <time>2018-10-18T09:14:06Z</time>
      </trkpt>
      <trkpt lat="44.31632" lon="5.40929">
        <ele>1081</ele>
        <time>2018-10-18T09:15:06Z</time>
      </trkpt>
      <trkpt lat="44.31694" lon="5.41322">
        <ele>1097</ele>
        <time>2018-10-18T09:16:06Z</time>
      </trkpt>
      <trkpt lat="44.31698" lon="5.41572">
        <ele>1123</ele>
        <time>2018-10-18T09:17:06Z</time>
      </trkpt>
      <trkpt lat="44.3172" lon="5.41827">
        <ele>1151</ele>
        <time>2018-10-18T09:18:06Z</time>
      </trkpt>
      <trkpt lat="44.31855" lon="5.41797">
        <ele>1153</ele>
        <time>2018-10-18T09:19:06Z</time>
      </trkpt>
      <trkpt lat="44.31975" lon="5.41582">
        <ele>1135</ele>
        <time>2018-10-18T09:20:06Z</time>
      </trkpt>
      <trkpt lat="44.31983" lon="5.4173">
        <ele>1134</ele>
        <time>2018-10-18T09:21:06Z</time>
      </trkpt>
      <trkpt lat="44.32096" lon="5.42021">
        <ele>1114</ele>
        <time>2018-10-18T09:22:06Z</time>
      </trkpt>
      <trkpt lat="44.32235" lon="5.41929">
        <ele>1128</ele>
        <time>2018-10-18T09:23:06Z</time>
      </trkpt>
      <trkpt lat="44.32377" lon="5.42174">
        <ele>1175</ele>
        <time>2018-10-18T09:24:06Z</time>
      </trkpt>
      <trkpt lat="44.32402" lon="5.42077">
        <ele>1176</ele>
        <time>2018-10-18T09:25:06Z</time>
      </trkpt>
      <trkpt lat="44.32428" lon="5.41965">
        <ele>1181</ele>
        <time>2018-10-18T09:26:06Z</time>
      </trkpt>
      <trkpt lat="44.32603" lon="5.41889">
        <ele>1143</ele>
        <time>2018-10-18T09:27:06Z</time>
      </trkpt>
      <trkpt lat="44.32786" lon="5.41593">
        <ele>1110</ele>
        <time>2018-10-18T09:28:06Z</time>
      </trkpt>
      <trkpt lat="44.33082" lon="5.41511">
        <ele>1084</ele>
        <time>2018-10-18T09:29:06Z</time>
      </trkpt>
      <trkpt lat="44.33169" lon="5.41368">
        <ele>1090</ele>
        <time>2018-10-18T09:30:06Z</time>
      </trkpt>
      <trkpt lat="44.33374" lon="5.41291">
        <ele>1069</ele>
        <time>2018-10-18T09:31:06Z</time>
      </trkpt>
      <trkpt lat="44.33541" lon="5.41409">
        <ele>1030</ele>
        <time>2018-10-18T09:32:06Z</time>
      </trkpt>
      <trkpt lat="44.33403" lon="5.41404">
        <ele>1021</ele>
        <time>2018-10-18T09:33:06Z</time>
      </trkpt>
      <trkpt lat="44.33238" lon="5.41541">
        <ele>1007</ele>
        <time>2018-10-18T09:34:06Z</time>
      </trkpt>
      <trkpt lat="44.3341" lon="5.4149">
        <ele>994</ele>
        <time>2018-10-18T09:35:06Z</time>
      </trkpt>
      <trkpt lat="44.33523" lon="5.41582">
        <ele>972</ele>
        <time>2018-10-18T09:36:06Z</time>
      </trkpt>
      <trkpt lat="44.33647" lon="5.41593">
        <ele>958</ele>
        <time>2018-10-18T09:37:06Z</time>
      </trkpt>
      <trkpt lat="44.33768" lon="5.41501">
        <ele>971</ele>
        <time>2018-10-18T09:38:06Z</time>
      </trkpt>
      <trkpt lat="44.34001" lon="5.41766">
        <ele>897</ele>
        <time>2018-10-18T09:39:06Z</time>
      </trkpt>
      <trkpt lat="44.34231" lon="5.41679">
        <ele>882</ele>
        <time>2018-10-18T09:40:06Z</time>
      </trkpt>
      <trkpt lat="44.34377" lon="5.41409">
        <ele>873</ele>
        <time>2018-10-18T09:41:06Z</time>
      </trkpt>
      <trkpt lat="44.34531" lon="5.41383">
        <ele>853</ele>
        <time>2018-10-18T09:42:06Z</time>
      </trkpt>
      <trkpt lat="44.34556" lon="5.4149">
        <ele>836</ele>
        <time>2018-10-18T09:43:06Z</time>
      </trkpt>
      <trkpt lat="44.34724" lon="5.41679">
        <ele>814</ele>
        <time>2018-10-18T09:44:06Z</time>
      </trkpt>
      <trkpt lat="44.34881" lon="5.4196">
        <ele>793</ele>
        <time>2018-10-18T09:45:06Z</time>
      </trkpt>
      <trkpt lat="44.35096" lon="5.41873">
        <ele>802</ele>
        <time>2018-10-18T09:46:06Z</time>
      </trkpt>
      <trkpt lat="44.35133" lon="5.41746">
        <ele>800</ele>
        <time>2018-10-18T09:47:06Z</time>
      </trkpt>
      <trkpt lat="44.35129" lon="5.41645">
        <ele>811</ele>
        <time>2018-10-18T09:48:06Z</time>
      </trkpt>
      <trkpt lat="44.35248" lon="5.41508">
        <ele>823</ele>
        <time>2018-10-18T09:49:06Z</time>
      </trkpt>
      <trkpt lat="44.35222" lon="5.41386">
        <ele>834</ele>
        <time>2018-10-18T09:50:06Z</time>
      </trkpt>
      <trkpt lat="44.35335" lon="5.4114">
        <ele>853</ele>
        <time>2018-10-18T09:51:06Z</time>
      </trkpt>
      <trkpt lat="44.35356" lon="5.40729">
        <ele>884</ele>
        <time>2018-10-18T09:52:06Z</time>
      </trkpt>
      <trkpt lat="44.35261" lon="5.40607">
        <ele>889</ele>
        <time>2018-10-18T09:53:06Z</time>
      </trkpt>
      <trkpt lat="44.35205" lon="5.40401">
        <ele>888</ele>
        <time>2018-10-18T09:54:06Z</time>
      </trkpt>
      <trkpt lat="44.352" lon="5.40073">
        <ele>891</ele>
        <time>2018-10-18T09:55:06Z</time>
      </trkpt>
      <trkpt lat="44.35365" lon="5.39946">
        <ele>871</ele>
        <time>2018-10-18T09:56:06Z</time>
      </trkpt>
      <trkpt lat="44.35556" lon="5.39655">
        <ele>867</ele>
        <time>2018-10-18T09:57:06Z</time>
      </trkpt>
      <trkpt lat="44.35504" lon="5.39345">
        <ele>880</ele>
        <time>2018-10-18T09:58:06Z</time>
      </trkpt>
      <trkpt lat="44.35504" lon="5.38999">
        <ele>882</ele>
        <time>2018-10-18T09:59:06Z</time>
      </trkpt>
      <trkpt lat="44.35721" lon="5.38938">
        <ele>876</ele>
        <time>2018-10-18T10:00:06Z</time>
      </trkpt>
      <trkpt lat="44.35665" lon="5.39035">
        <ele>864</ele>
        <time>2018-10-18T10:01:06Z</time>
      </trkpt>
      <trkpt lat="44.35556" lon="5.39181">
        <ele>857</ele>
        <time>2018-10-18T10:02:06Z</time>
      </trkpt>
      <trkpt lat="44.35691" lon="5.39394">
        <ele>820</ele>
        <time>2018-10-18T10:03:06Z</time>
      </trkpt>
      <trkpt lat="44.35942" lon="5.39406">
        <ele>784</ele>
        <time>2018-10-18T10:04:06Z</time>
      </trkpt>
      <trkpt lat="44.35856" lon="5.39661">
        <ele>765</ele>
        <time>2018-10-18T10:05:06Z</time>
      </trkpt>
      <trkpt lat="44.35769" lon="5.39697">
        <ele>767</ele>
        <time>2018-10-18T10:06:06Z</time>
      </trkpt>
      <trkpt lat="44.35734" lon="5.39812">
        <ele>771</ele>
        <time>2018-10-18T10:07:06Z</time>
      </trkpt>
      <trkpt lat="44.3579" lon="5.39928">
        <ele>748</ele>
        <time>2018-10-18T10:08:06Z</time>
      </trkpt>
      <trkpt lat="44.3576" lon="5.40098">
        <ele>755</ele>
        <time>2018-10-18T10:09:06Z</time>
      </trkpt>
      <trkpt lat="44.35973" lon="5.3997">
        <ele>725</ele>
        <time>2018-10-18T10:10:06Z</time>
      </trkpt>
      <trkpt lat="44.36233" lon="5.39861">
        <ele>693</ele>
        <time>2018-10-18T10:11:06Z</time>
      </trkpt>
      <trkpt lat="44.3655" lon="5.40158">
        <ele>654</ele>
        <time>2018-10-18T10:12:06Z</time>
      </trkpt>
      <trkpt lat="44.3678" lon="5.4034">
        <ele>632</ele>
        <time>2018-10-18T10:13:06Z</time>
      </trkpt>
      <trkpt lat="44.37027" lon="5.40856">
        <ele>625</ele>
        <time>2018-10-18T10:14:06Z</time>
      </trkpt>
      <trkpt lat="44.37075" lon="5.41172">
        <ele>620</ele>
        <time>2018-10-18T10:15:06Z</time>
      </trkpt>
      <trkpt lat="44.3737" lon="5.41676">
        <ele>623</ele>
        <time>2018-10-18T10:16:06Z</time>
      </trkpt>
      <trkpt lat="44.37517" lon="5.41767">
        <ele>624</ele>
        <time>2018-10-18T10:17:06Z</time>
      </trkpt>
      <trkpt lat="44.37634" lon="5.42028">
        <ele>592</ele>
        <time>2018-10-18T10:18:06Z</time>
      </trkpt>
      <trkpt lat="44.37765" lon="5.42149">
        <ele>585</ele>
        <time>2018-10-18T10:19:06Z</time>
      </trkpt>
      <trkpt lat="44.37882" lon="5.42434">
        <ele>555</ele>
        <time>2018-10-18T10:20:06Z</time>
      </trkpt>
      <trkpt lat="44.38007" lon="5.42361">
        <ele>541</ele>
        <time>2018-10-18T10:21:06Z</time>
      </trkpt>
      <trkpt lat="44.3802" lon="5.42501">
        <ele>535</ele>
        <time>2018-10-18T10:22:06Z</time>
      </trkpt>
      <trkpt lat="44.37994" lon="5.4258">
        <ele>530</ele>
        <time>2018-10-18T10:23:06Z</time>
      </trkpt>
      <trkpt lat="44.37994" lon="5.42726">
        <ele>528</ele>
        <time>2018-10-18T10:24:06Z</time>
      </trkpt>
      <trkpt lat="44.3812" lon="5.42641">
        <ele>528</ele>
        <time>2018-10-18T10:25:06Z</time>
      </trkpt>
      <trkpt lat="44.38294" lon="5.42744">
        <ele>551</ele>
        <time>2018-10-18T10:26:06Z</time>
      </trkpt>
      <trkpt lat="44.38359" lon="5.43065">
        <ele>551</ele>
        <time>2018-10-18T10:27:06Z</time>
      </trkpt>
      <trkpt lat="44.38372" lon="5.43156">
        <ele>550</ele>
        <time>2018-10-18T10:28:06Z</time>
      </trkpt>
      <trkpt lat="44.38545" lon="5.43296">
        <ele>563</ele>
        <time>2018-10-18T10:29:06Z</time>
      </trkpt>
      <trkpt lat="44.38511" lon="5.43162">
        <ele>572</ele>
        <time>2018-10-18T10:30:06Z</time>
      </trkpt>
      <trkpt lat="44.38801" lon="5.42974">
        <ele>605</ele>
        <time>2018-10-18T10:31:06Z</time>
      </trkpt>
      <trkpt lat="44.38953" lon="5.42956">
        <ele>622</ele>
        <time>2018-10-18T10:32:06Z</time>
      </trkpt>
      <trkpt lat="44.39126" lon="5.42968">
        <ele>637</ele>
        <time>2018-10-18T10:33:06Z</time>
      </trkpt>
      <trkpt lat="44.39296" lon="5.42962">
        <ele>658</ele>
        <time>2018-10-18T10:34:06Z</time>
      </trkpt>
      <trkpt lat="44.39443" lon="5.43059">
        <ele>663</ele>
        <time>2018-10-18T10:35:06Z</time>
      </trkpt>
      <trkpt lat="44.3953" lon="5.42962">
        <ele>687</ele>
        <time>2018-10-18T10:36:06Z</time>
      </trkpt>
      <trkpt lat="44.39504" lon="5.42841">
        <ele>699</ele>
        <time>2018-10-18T10:37:06Z</time>
      </trkpt>
      <trkpt lat="44.39621" lon="5.42938">
        <ele>702</ele>
        <time>2018-10-18T10:38:06Z</time>
      </trkpt>
      <trkpt lat="44.39538" lon="5.42671">
        <ele>731</ele>
        <time>2018-10-18T10:39:06Z</time>
      </trkpt>
      <trkpt lat="44.39803" lon="5.42792">
        <ele>755</ele>
        <time>2018-10-18T10:40:06Z</time>
      </trkpt>
      <trkpt lat="44.40107" lon="5.42616">
        <ele>806</ele>
        <time>2018-10-18T10:41:06Z</time>
      </trkpt>
      <trkpt lat="44.40406" lon="5.42416">
        <ele>863</ele>
        <time>2018-10-18T10:42:06Z</time>
      </trkpt>
      <trkpt lat="44.40692" lon="5.4221">
        <ele>926</ele>
        <time>2018-10-18T10:43:06Z</time>
      </trkpt>
      <trkpt lat="44.41095" lon="5.42021">
        <ele>1004</ele>
        <time>2018-10-18T10:44:06Z</time>
      </trkpt>
      <trkpt lat="44.40982" lon="5.41949">
        <ele>1021</ele>
        <time>2018-10-18T10:45:06Z</time>
      </trkpt>
      <trkpt lat="44.41147" lon="5.41821">
        <ele>1069</ele>
        <time>2018-10-18T10:46:06Z</time>
      </trkpt>
      <trkpt lat="44.41477" lon="5.42009">
        <ele>1131</ele>
        <time>2018-10-18T10:47:06Z</time>
      </trkpt>
      <trkpt lat="44.41667" lon="5.41348">
        <ele>1102</ele>
        <time>2018-10-18T10:48:06Z</time>
      </trkpt>
      <trkpt lat="44.41533" lon="5.41342">
        <ele>1092</ele>
        <time>2018-10-18T10:49:06Z</time>
      </trkpt>
      <trkpt lat="44.41321" lon="5.41135">
        <ele>1056</ele>
        <time>2018-10-18T10:50:06Z</time>
      </trkpt>
      <trkpt lat="44.4103" lon="5.40735">
        <ele>1009</ele>
        <time>2018-10-18T10:51:06Z</time>
      </trkpt>
      <trkpt lat="44.40883" lon="5.40413">
        <ele>975</ele>
        <time>2018-10-18T10:52:06Z</time>
      </trkpt>
      <trkpt lat="44.40787" lon="5.40007">
        <ele>940</ele>
        <time>2018-10-18T10:53:06Z</time>
      </trkpt>
      <trkpt lat="44.40813" lon="5.39806">
        <ele>913</ele>
        <time>2018-10-18T10:54:06Z</time>
      </trkpt>
      <trkpt lat="44.40701" lon="5.39715">
        <ele>892</ele>
        <time>2018-10-18T10:55:06Z</time>
      </trkpt>
      <trkpt lat="44.40627" lon="5.39739">
        <ele>888</ele>
        <time>2018-10-18T10:56:06Z</time>
      </trkpt>
      <trkpt lat="44.40488" lon="5.39515">
        <ele>831</ele>
        <time>2018-10-18T10:57:06Z</time>
      </trkpt>
      <trkpt lat="44.4038" lon="5.39345">
        <ele>796</ele>
        <time>2018-10-18T10:58:06Z</time>
      </trkpt>
      <trkpt lat="44.4025" lon="5.39114">
        <ele>796</ele>
        <time>2018-10-18T10:59:06Z</time>
      </trkpt>
      <trkpt lat="44.40202" lon="5.39042">
        <ele>800</ele>
        <time>2018-10-18T11:00:06Z</time>
      </trkpt>
      <trkpt lat="44.4018" lon="5.38878">
        <ele>793</ele>
        <time>2018-10-18T11:01:06Z</time>
      </trkpt>
      <trkpt lat="44.40093" lon="5.38708">
        <ele>800</ele>
        <time>2018-10-18T11:02:06Z</time>
      </trkpt>
      <trkpt lat="44.40306" lon="5.38319">
        <ele>804</ele>
        <time>2018-10-18T11:03:06Z</time>
      </trkpt>
      <trkpt lat="44.40215" lon="5.38095">
        <ele>796</ele>
        <time>2018-10-18T11:04:06Z</time>
      </trkpt>
      <trkpt lat="44.4028" lon="5.37979">
        <ele>780</ele>
        <time>2018-10-18T11:05:06Z</time>
      </trkpt>
      <trkpt lat="44.40241" lon="5.37816">
        <ele>783</ele>
        <time>2018-10-18T11:06:06Z</time>
      </trkpt>
      <trkpt lat="44.40328" lon="5.37979">
        <ele>763</ele>
        <time>2018-10-18T11:07:06Z</time>
      </trkpt>
      <trkpt lat="44.40302" lon="5.38107">
        <ele>771</ele>
        <time>2018-10-18T11:08:06Z</time>
      </trkpt>
      <trkpt lat="44.40479" lon="5.38228">
        <ele>730</ele>
        <time>2018-10-18T11:09:06Z</time>
      </trkpt>
      <trkpt lat="44.40501" lon="5.38149">
        <ele>718</ele>
        <time>2018-10-18T11:10:06Z</time>
      </trkpt>
      <trkpt lat="44.4054" lon="5.38222">
        <ele>734</ele>
        <time>2018-10-18T11:11:06Z</time>
      </trkpt>
      <trkpt lat="44.40549" lon="5.38064">
        <ele>732</ele>
        <time>2018-10-18T11:12:06Z</time>
      </trkpt>
      <trkpt lat="44.40705" lon="5.37967">
        <ele>776</ele>
        <time>2018-10-18T11:13:06Z</time>
      </trkpt>
      <trkpt lat="44.41203" lon="5.37925">
        <ele>887</ele>
        <time>2018-10-18T11:14:06Z</time>
      </trkpt>
      <trkpt lat="44.41173" lon="5.37785">
        <ele>887</ele>
        <time>2018-10-18T11:15:06Z</time>
      </trkpt>
      <trkpt lat="44.41355" lon="5.37816">
        <ele>936</ele>
        <time>2018-10-18T11:16:06Z</time>
      </trkpt>
      <trkpt lat="44.41381" lon="5.37925">
        <ele>943</ele>
        <time>2018-10-18T11:17:06Z</time>
      </trkpt>
      <trkpt lat="44.41451" lon="5.37828">
        <ele>963</ele>
        <time>2018-10-18T11:18:06Z</time>
      </trkpt>
      <trkpt lat="44.41498" lon="5.37967">
        <ele>976</ele>
        <time>2018-10-18T11:19:06Z</time>
      </trkpt>
      <trkpt lat="44.4152" lon="5.38356">
        <ele>1032</ele>
        <time>2018-10-18T11:20:06Z</time>
      </trkpt>
      <trkpt lat="44.41966" lon="5.38465">
        <ele>1042</ele>
        <time>2018-10-18T11:21:06Z</time>
      </trkpt>
      <trkpt lat="44.42023" lon="5.38289">
        <ele>1042</ele>
        <time>2018-10-18T11:22:06Z</time>
      </trkpt>
      <trkpt lat="44.42266" lon="5.39187">
        <ele>1044</ele>
        <time>2018-10-18T11:23:06Z</time>
      </trkpt>
      <trkpt lat="44.42274" lon="5.38884">
        <ele>1022</ele>
        <time>2018-10-18T11:24:06Z</time>
      </trkpt>
      <trkpt lat="44.4243" lon="5.39375">
        <ele>959</ele>
        <time>2018-10-18T11:25:06Z</time>
      </trkpt>
      <trkpt lat="44.42456" lon="5.39023">
        <ele>932</ele>
        <time>2018-10-18T11:26:06Z</time>
      </trkpt>
      <trkpt lat="44.42556" lon="5.39242">
        <ele>904</ele>
        <time>2018-10-18T11:27:06Z</time>
      </trkpt>
      <trkpt lat="44.42526" lon="5.39017">
        <ele>903</ele>
        <time>2018-10-18T11:28:06Z</time>
      </trkpt>
      <trkpt lat="44.42699" lon="5.39029">
        <ele>850</ele>
        <time>2018-10-18T11:29:06Z</time>
      </trkpt>
      <trkpt lat="44.42686" lon="5.38878">
        <ele>867</ele>
        <time>2018-10-18T11:30:06Z</time>
      </trkpt>
      <trkpt lat="44.42738" lon="5.38981">
        <ele>841</ele>
        <time>2018-10-18T11:31:06Z</time>
      </trkpt>
      <trkpt lat="44.42729" lon="5.38853">
        <ele>843</ele>
        <time>2018-10-18T11:32:06Z</time>
      </trkpt>
      <trkpt lat="44.42777" lon="5.39048">
        <ele>814</ele>
        <time>2018-10-18T11:33:06Z</time>
      </trkpt>
      <trkpt lat="44.42833" lon="5.38787">
        <ele>798</ele>
        <time>2018-10-18T11:34:06Z</time>
      </trkpt>
      <trkpt lat="44.42877" lon="5.38878">
        <ele>785</ele>
        <time>2018-10-18T11:35:06Z</time>
      </trkpt>
      <trkpt lat="44.42911" lon="5.38768">
        <ele>770</ele>
        <time>2018-10-18T11:36:06Z</time>
      </trkpt>
      <trkpt lat="44.42872" lon="5.39114">
        <ele>759</ele>
        <time>2018-10-18T11:37:06Z</time>
      </trkpt>
      <trkpt lat="44.42998" lon="5.38908">
        <ele>723</ele>
        <time>2018-10-18T11:38:06Z</time>
      </trkpt>
      <trkpt lat="44.43046" lon="5.38762">
        <ele>717</ele>
        <time>2018-10-18T11:39:06Z</time>
      </trkpt>
      <trkpt lat="44.43124" lon="5.38617">
        <ele>694</ele>
        <time>2018-10-18T11:40:06Z</time>
      </trkpt>
      <trkpt lat="44.43037" lon="5.38459">
        <ele>683</ele>
        <time>2018-10-18T11:41:06Z</time>
      </trkpt>
      <trkpt lat="44.43137" lon="5.38362">
        <ele>652</ele>
        <time>2018-10-18T11:42:06Z</time>
      </trkpt>
      <trkpt lat="44.43076" lon="5.38356">
        <ele>666</ele>
        <time>2018-10-18T11:43:06Z</time>
      </trkpt>
      <trkpt lat="44.43106" lon="5.38174">
        <ele>655</ele>
        <time>2018-10-18T11:44:06Z</time>
      </trkpt>
      <trkpt lat="44.43245" lon="5.37943">
        <ele>622</ele>
        <time>2018-10-18T11:45:06Z</time>
      </trkpt>
      <trkpt lat="44.43288" lon="5.37737">
        <ele>606</ele>
        <time>2018-10-18T11:46:06Z</time>
      </trkpt>
      <trkpt lat="44.43262" lon="5.37567">
        <ele>588</ele>
        <time>2018-10-18T11:47:06Z</time>
      </trkpt>
      <trkpt lat="44.4344" lon="5.37658">
        <ele>569</ele>
        <time>2018-10-18T11:48:06Z</time>
      </trkpt>
      <trkpt lat="44.43609" lon="5.37336">
        <ele>523</ele>
        <time>2018-10-18T11:49:06Z</time>
      </trkpt>
      <trkpt lat="44.4367" lon="5.37124">
        <ele>500</ele>
        <time>2018-10-18T11:50:06Z</time>
      </trkpt>
      <trkpt lat="44.43648" lon="5.36929">
        <ele>484</ele>
        <time>2018-10-18T11:51:06Z</time>
      </trkpt>
      <trkpt lat="44.43966" lon="5.36807">
        <ele>488</ele>
        <time>2018-10-18T11:52:06Z</time>
      </trkpt>
      <trkpt lat="44.44181" lon="5.36944">
        <ele>488</ele>
        <time>2018-10-18T11:53:06Z</time>
      </trkpt>
      <trkpt lat="44.44181" lon="5.37442">
        <ele>515</ele>
        <time>2018-10-18T11:54:06Z</time>
      </trkpt>
      <trkpt lat="44.4434" lon="5.3806">
        <ele>528</ele>
        <time>2018-10-18T11:55:06Z</time>
      </trkpt>
      <trkpt lat="44.44144" lon="5.38291">
        <ele>538</ele>
        <time>2018-10-18T11:56:06Z</time>
      </trkpt>
      <trkpt lat="44.4423" lon="5.38575">
        <ele>560</ele>
        <time>2018-10-18T11:57:06Z</time>
      </trkpt>
      <trkpt lat="44.44248" lon="5.38927">
        <ele>573</ele>
        <time>2018-10-18T11:58:06Z</time>
      </trkpt>
      <trkpt lat="44.44291" lon="5.39218">
        <ele>580</ele>
        <time>2018-10-18T11:59:06Z</time>
      </trkpt>
      <trkpt lat="44.44365" lon="5.3939">
        <ele>589</ele>
        <time>2018-10-18T12:00:06Z</time>
      </trkpt>
      <trkpt lat="44.44365" lon="5.39536">
        <ele>595</ele>
        <time>2018-10-18T12:01:06Z</time>
      </trkpt>
      <trkpt lat="44.44297" lon="5.39579">
        <ele>594</ele>
        <time>2018-10-18T12:02:06Z</time>
      </trkpt>
      <trkpt lat="44.44346" lon="5.39708">
        <ele>607</ele>
        <time>2018-10-18T12:03:06Z</time>
      </trkpt>
      <trkpt lat="44.44303" lon="5.39879">
        <ele>613</ele>
        <time>2018-10-18T12:04:06Z</time>
      </trkpt>
      <trkpt lat="44.44573" lon="5.39682">
        <ele>646</ele>
        <time>2018-10-18T12:05:06Z</time>
      </trkpt>
      <trkpt lat="44.44463" lon="5.39854">
        <ele>655</ele>
        <time>2018-10-18T12:06:06Z</time>
      </trkpt>
      <trkpt lat="44.44469" lon="5.40042">
        <ele>660</ele>
        <time>2018-10-18T12:07:06Z</time>
      </trkpt>
      <trkpt lat="44.44647" lon="5.39862">
        <ele>686</ele>
        <time>2018-10-18T12:08:06Z</time>
      </trkpt>
      <trkpt lat="44.44585" lon="5.4006">
        <ele>696</ele>
        <time>2018-10-18T12:09:06Z</time>
      </trkpt>
      <trkpt lat="44.44659" lon="5.40291">
        <ele>720</ele>
        <time>2018-10-18T12:10:06Z</time>
      </trkpt>
      <trkpt lat="44.44542" lon="5.40566">
        <ele>728</ele>
        <time>2018-10-18T12:11:06Z</time>
      </trkpt>
      <trkpt lat="44.44824" lon="5.40231">
        <ele>758</ele>
        <time>2018-10-18T12:12:06Z</time>
      </trkpt>
      <trkpt lat="44.44787" lon="5.40523">
        <ele>778</ele>
        <time>2018-10-18T12:13:06Z</time>
      </trkpt>
      <trkpt lat="44.44763" lon="5.40669">
        <ele>791</ele>
        <time>2018-10-18T12:14:06Z</time>
      </trkpt>
      <trkpt lat="44.44665" lon="5.40755">
        <ele>787</ele>
        <time>2018-10-18T12:15:06Z</time>
      </trkpt>
      <trkpt lat="44.44898" lon="5.41055">
        <ele>809</ele>
        <time>2018-10-18T12:16:06Z</time>
      </trkpt>
      <trkpt lat="44.44916" lon="5.4127">
        <ele>805</ele>
        <time>2018-10-18T12:17:06Z</time>
      </trkpt>
      <trkpt lat="44.44984" lon="5.41484">
        <ele>806</ele>
        <time>2018-10-18T12:18:06Z</time>
      </trkpt>
      <trkpt lat="44.44922" lon="5.41948">
        <ele>837</ele>
        <time>2018-10-18T12:19:06Z</time>
      </trkpt>
      <trkpt lat="44.44622" lon="5.42428">
        <ele>876</ele>
        <time>2018-10-18T12:20:06Z</time>
      </trkpt>
      <trkpt lat="44.44334" lon="5.42943">
        <ele>913</ele>
        <time>2018-10-18T12:21:06Z</time>
      </trkpt>
      <trkpt lat="44.44205" lon="5.43021">
        <ele>940</ele>
        <time>2018-10-18T12:22:06Z</time>
      </trkpt>
      <trkpt lat="44.44322" lon="5.4369">
        <ele>1015</ele>
        <time>2018-10-18T12:23:06Z</time>
      </trkpt>
      <trkpt lat="44.44518" lon="5.43527">
        <ele>1015</ele>
        <time>2018-10-18T12:24:06Z</time>
      </trkpt>
      <trkpt lat="44.44267" lon="5.44094">
        <ele>1075</ele>
        <time>2018-10-18T12:25:06Z</time>
      </trkpt>
      <trkpt lat="44.44083" lon="5.4424">
        <ele>1087</ele>
        <time>2018-10-18T12:26:06Z</time>
      </trkpt>
      <trkpt lat="44.44009" lon="5.4454">
        <ele>1079</ele>
        <time>2018-10-18T12:27:06Z</time>
      </trkpt>
      <trkpt lat="44.44046" lon="5.44815">
        <ele>1083</ele>
        <time>2018-10-18T12:28:06Z</time>
      </trkpt>
      <trkpt lat="44.43985" lon="5.44952">
        <ele>1079</ele>
        <time>2018-10-18T12:29:06Z</time>
      </trkpt>
      <trkpt lat="44.43948" lon="5.45124">
        <ele>1070</ele>
        <time>2018-10-18T12:30:06Z</time>
      </trkpt>
      <trkpt lat="44.43832" lon="5.45158">
        <ele>1077</ele>
        <time>2018-10-18T12:31:06Z</time>
      </trkpt>
      <trkpt lat="44.43779" lon="5.45425">
        <ele>1064</ele>
        <time>2018-10-18T12:32:06Z</time>
      </trkpt>
      <trkpt lat="44.43633" lon="5.45589">
        <ele>1058</ele>
        <time>2018-10-18T12:33:06Z</time>
      </trkpt>
      <trkpt lat="44.43528" lon="5.45563">
        <ele>1071</ele>
        <time>2018-10-18T12:34:06Z</time>
      </trkpt>
      <trkpt lat="44.43364" lon="5.45793">
        <ele>1056</ele>
        <time>2018-10-18T12:35:06Z</time>
      </trkpt>
      <trkpt lat="44.4324" lon="5.46114">
        <ele>1035</ele>
        <time>2018-10-18T12:36:06Z</time>
      </trkpt>
      <trkpt lat="44.43072" lon="5.46155">
        <ele>1044</ele>
        <time>2018-10-18T12:37:06Z</time>
      </trkpt>
      <trkpt lat="44.43174" lon="5.46232">
        <ele>1018</ele>
        <time>2018-10-18T12:38:06Z</time>
      </trkpt>
      <trkpt lat="44.42988" lon="5.46349">
        <ele>1015</ele>
        <time>2018-10-18T12:39:06Z</time>
      </trkpt>
      <trkpt lat="44.4305" lon="5.46538">
        <ele>996</ele>
        <time>2018-10-18T12:40:06Z</time>
      </trkpt>
      <trkpt lat="44.42937" lon="5.46737">
        <ele>997</ele>
        <time>2018-10-18T12:41:06Z</time>
      </trkpt>
      <trkpt lat="44.43003" lon="5.46854">
        <ele>992</ele>
        <time>2018-10-18T12:42:06Z</time>
      </trkpt>
      <trkpt lat="44.43225" lon="5.46839">
        <ele>976</ele>
        <time>2018-10-18T12:43:06Z</time>
      </trkpt>
      <trkpt lat="44.43308" lon="5.46731">
        <ele>952</ele>
        <time>2018-10-18T12:44:06Z</time>
      </trkpt>
      <trkpt lat="44.43206" lon="5.46735">
        <ele>957</ele>
        <time>2018-10-18T12:45:06Z</time>
      </trkpt>
      <trkpt lat="44.43369" lon="5.46679">
        <ele>934</ele>
        <time>2018-10-18T12:46:06Z</time>
      </trkpt>
      <trkpt lat="44.43543" lon="5.46645">
        <ele>907</ele>
        <time>2018-10-18T12:47:06Z</time>
      </trkpt>
      <trkpt lat="44.4354" lon="5.46842">
        <ele>931</ele>
        <time>2018-10-18T12:48:06Z</time>
      </trkpt>
      <trkpt lat="44.43733" lon="5.46551">
        <ele>881</ele>
        <time>2018-10-18T12:49:06Z</time>
      </trkpt>
      <trkpt lat="44.44043" lon="5.464">
        <ele>847</ele>
        <time>2018-10-18T12:50:06Z</time>
      </trkpt>
      <trkpt lat="44.44074" lon="5.4646">
        <ele>861</ele>
        <time>2018-10-18T12:51:06Z</time>
      </trkpt>
      <trkpt lat="44.44138" lon="5.46319">
        <ele>833</ele>
        <time>2018-10-18T12:52:06Z</time>
      </trkpt>
      <trkpt lat="44.44355" lon="5.46216">
        <ele>819</ele>
        <time>2018-10-18T12:53:06Z</time>
      </trkpt>
      <trkpt lat="44.44453" lon="5.46121">
        <ele>813</ele>
        <time>2018-10-18T12:54:06Z</time>
      </trkpt>
      <trkpt lat="44.4438" lon="5.46087">
        <ele>797</ele>
        <time>2018-10-18T12:55:06Z</time>
      </trkpt>
      <trkpt lat="44.44567" lon="5.46001">
        <ele>800</ele>
        <time>2018-10-18T12:56:06Z</time>
      </trkpt>
      <trkpt lat="44.44653" lon="5.45868">
        <ele>781</ele>
        <time>2018-10-18T12:57:06Z</time>
      </trkpt>
      <trkpt lat="44.45048" lon="5.45538">
        <ele>745</ele>
        <time>2018-10-18T12:58:06Z</time>
      </trkpt>
      <trkpt lat="44.45287" lon="5.45443">
        <ele>718</ele>
        <time>2018-10-18T12:59:06Z</time>
      </trkpt>
      <trkpt lat="44.45648" lon="5.45512">
        <ele>694</ele>
        <time>2018-10-18T13:00:06Z</time>
      </trkpt>
      <trkpt lat="44.45863" lon="5.45465">
        <ele>687</ele>
        <time>2018-10-18T13:01:06Z</time>
      </trkpt>
      <trkpt lat="44.46025" lon="5.45469">
        <ele>674</ele>
        <time>2018-10-18T13:02:06Z</time>
      </trkpt>
      <trkpt lat="44.46218" lon="5.45435">
        <ele>669</ele>
        <time>2018-10-18T13:03:06Z</time>
      </trkpt>
      <trkpt lat="44.46166" lon="5.45521">
        <ele>685</ele>
        <time>2018-10-18T13:04:06Z</time>
      </trkpt>
      <trkpt lat="44.4642" lon="5.45752">
        <ele>706</ele>
        <time>2018-10-18T13:05:06Z</time>
      </trkpt>
      <trkpt lat="44.46558" lon="5.45761">
        <ele>714</ele>
        <time>2018-10-18T13:06:06Z</time>
      </trkpt>
      <trkpt lat="44.46638" lon="5.45662">
        <ele>716</ele>
        <time>2018-10-18T13:07:06Z</time>
      </trkpt>
      <trkpt lat="44.46589" lon="5.45838">
        <ele>728</ele>
        <time>2018-10-18T13:08:06Z</time>
      </trkpt>
      <trkpt lat="44.46518" lon="5.45945">
        <ele>727</ele>
        <time>2018-10-18T13:09:06Z</time>
      </trkpt>
      <trkpt lat="44.46484" lon="5.46014">
        <ele>731</ele>
        <time>2018-10-18T13:10:06Z</time>
      </trkpt>
      <trkpt lat="44.46598" lon="5.46263">
        <ele>713</ele>
        <time>2018-10-18T13:11:06Z</time>
      </trkpt>
      <trkpt lat="44.46579" lon="5.46426">
        <ele>708</ele>
        <time>2018-10-18T13:12:06Z</time>
      </trkpt>
      <trkpt lat="44.46687" lon="5.46563">
        <ele>692</ele>
        <time>2018-10-18T13:13:06Z</time>
      </trkpt>
      <trkpt lat="44.46567" lon="5.46649">
        <ele>690</ele>
        <time>2018-10-18T13:14:06Z</time>
      </trkpt>
      <trkpt lat="44.46717" lon="5.46894">
        <ele>666</ele>
        <time>2018-10-18T13:15:06Z</time>
      </trkpt>
      <trkpt lat="44.46665" lon="5.47126">
        <ele>660</ele>
        <time>2018-10-18T13:16:06Z</time>
      </trkpt>
      <trkpt lat="44.4669" lon="5.4734">
        <ele>650</ele>
        <time>2018-10-18T13:17:06Z</time>
      </trkpt>
      <trkpt lat="44.46625" lon="5.47439">
        <ele>653</ele>
        <time>2018-10-18T13:18:06Z</time>
      </trkpt>
      <trkpt lat="44.46601" lon="5.47641">
        <ele>654</ele>
        <time>2018-10-18T13:19:06Z</time>
      </trkpt>
      <trkpt lat="44.46638" lon="5.47761">
        <ele>652</ele>
        <time>2018-10-18T13:20:06Z</time>
      </trkpt>
      <trkpt lat="44.46633" lon="5.47945">
        <ele>653</ele>
        <time>2018-10-18T13:21:06Z</time>
      </trkpt>
      <trkpt lat="44.46655" lon="5.48515">
        <ele>655</ele>
        <time>2018-10-18T13:22:06Z</time>
      </trkpt>
      <trkpt lat="44.46365" lon="5.48491">
        <ele>667</ele>
        <time>2018-10-18T13:23:06Z</time>
      </trkpt>
      <trkpt lat="44.46165" lon="5.48412">
        <ele>675</ele>
        <time>2018-10-18T13:24:06Z</time>
      </trkpt>
      <trkpt lat="44.46018" lon="5.48503">
        <ele>679</ele>
        <time>2018-10-18T13:25:06Z</time>
      </trkpt>
      <trkpt lat="44.45897" lon="5.48588">
        <ele>693</ele>
        <time>2018-10-18T13:26:06Z</time>
      </trkpt>
      <trkpt lat="44.45871" lon="5.48776">
        <ele>699</ele>
        <time>2018-10-18T13:27:06Z</time>
      </trkpt>
      <trkpt lat="44.45736" lon="5.4894">
        <ele>713</ele>
        <time>2018-10-18T13:28:06Z</time>
      </trkpt>
      <trkpt lat="44.45641" lon="5.49092">
        <ele>712</ele>
        <time>2018-10-18T13:29:06Z</time>
      </trkpt>
      <trkpt lat="44.45615" lon="5.49317">
        <ele>722</ele>
        <time>2018-10-18T13:30:06Z</time>
      </trkpt>
      <trkpt lat="44.45572" lon="5.49438">
        <ele>731</ele>
        <time>2018-10-18T13:31:06Z</time>
      </trkpt>
      <trkpt lat="44.45342" lon="5.49614">
        <ele>736</ele>
        <time>2018-10-18T13:32:06Z</time>
      </trkpt>
      <trkpt lat="44.45195" lon="5.49875">
        <ele>749</ele>
        <time>2018-10-18T13:33:06Z</time>
      </trkpt>
      <trkpt lat="44.45056" lon="5.50324">
        <ele>762</ele>
        <time>2018-10-18T13:34:06Z</time>
      </trkpt>
      <trkpt lat="44.45017" lon="5.50549">
        <ele>768</ele>
        <time>2018-10-18T13:35:06Z</time>
      </trkpt>
      <trkpt lat="44.45069" lon="5.50779">
        <ele>768</ele>
        <time>2018-10-18T13:36:06Z</time>
      </trkpt>
      <trkpt lat="44.45039" lon="5.5098">
        <ele>773</ele>
        <time>2018-10-18T13:37:06Z</time>
      </trkpt>
      <trkpt lat="44.44944" lon="5.50986">
        <ele>782</ele>
        <time>2018-10-18T13:38:06Z</time>
      </trkpt>
      <trkpt lat="44.44861" lon="5.51119">
        <ele>789</ele>
        <time>2018-10-18T13:39:06Z</time>
      </trkpt>
      <trkpt lat="44.44662" lon="5.51247">
        <ele>800</ele>
        <time>2018-10-18T13:40:06Z</time>
      </trkpt>
      <trkpt lat="44.4487" lon="5.51289">
        <ele>806</ele>
        <time>2018-10-18T13:41:06Z</time>
      </trkpt>
      <trkpt lat="44.44853" lon="5.5172">
        <ele>809</ele>
        <time>2018-10-18T13:42:06Z</time>
      </trkpt>
      <trkpt lat="44.44822" lon="5.52084">
        <ele>811</ele>
        <time>2018-10-18T13:43:06Z</time>
      </trkpt>
      <trkpt lat="44.44783" lon="5.52345">
        <ele>832</ele>
        <time>2018-10-18T13:44:06Z</time>
      </trkpt>
      <trkpt lat="44.44753" lon="5.52588">
        <ele>828</ele>
        <time>2018-10-18T13:45:06Z</time>
      </trkpt>
      <trkpt lat="44.44701" lon="5.52679">
        <ele>815</ele>
        <time>2018-10-18T13:46:06Z</time>
      </trkpt>
      <trkpt lat="44.44727" lon="5.52837">
        <ele>789</ele>
        <time>2018-10-18T13:47:06Z</time>
      </trkpt>
      <trkpt lat="44.44792" lon="5.52982">
        <ele>773</ele>
        <time>2018-10-18T13:48:06Z</time>
      </trkpt>
      <trkpt lat="44.44944" lon="5.53359">
        <ele>761</ele>
        <time>2018-10-18T13:49:06Z</time>
      </trkpt>
      <trkpt lat="44.45013" lon="5.53668">
        <ele>757</ele>
        <time>2018-10-18T13:50:06Z</time>
      </trkpt>
      <trkpt lat="44.45143" lon="5.53777">
        <ele>760</ele>
        <time>2018-10-18T13:51:06Z</time>
      </trkpt>
      <trkpt lat="44.44968" lon="5.5442">
        <ele>779</ele>
        <time>2018-10-18T13:52:06Z</time>
      </trkpt>
      <trkpt lat="44.44844" lon="5.54788">
        <ele>797</ele>
        <time>2018-10-18T13:53:06Z</time>
      </trkpt>
      <trkpt lat="44.44731" lon="5.54947">
        <ele>815</ele>
        <time>2018-10-18T13:54:06Z</time>
      </trkpt>
      <trkpt lat="44.44494" lon="5.55135">
        <ele>830</ele>
        <time>2018-10-18T13:55:06Z</time>
      </trkpt>
      <trkpt lat="44.44391" lon="5.55402">
        <ele>830</ele>
        <time>2018-10-18T13:56:06Z</time>
      </trkpt>
      <trkpt lat="44.44401" lon="5.55597">
        <ele>835</ele>
        <time>2018-10-18T13:57:06Z</time>
      </trkpt>
      <trkpt lat="44.4435" lon="5.55871">
        <ele>849</ele>
        <time>2018-10-18T13:58:06Z</time>
      </trkpt>
      <trkpt lat="44.44442" lon="5.56485">
        <ele>861</ele>
        <time>2018-10-18T13:59:06Z</time>
      </trkpt>
      <trkpt lat="44.4453" lon="5.5678">
        <ele>869</ele>
        <time>2018-10-18T14:00:06Z</time>
      </trkpt>
      <trkpt lat="44.44638" lon="5.57084">
        <ele>893</ele>
        <time>2018-10-18T14:01:06Z</time>
      </trkpt>
      <trkpt lat="44.44824" lon="5.57336">
        <ele>890</ele>
        <time>2018-10-18T14:02:06Z</time>
      </trkpt>
      <trkpt lat="44.45087" lon="5.57664">
        <ele>903</ele>
        <time>2018-10-18T14:03:06Z</time>
      </trkpt>
      <trkpt lat="44.45342" lon="5.57883">
        <ele>931</ele>
        <time>2018-10-18T14:04:06Z</time>
      </trkpt>
      <trkpt lat="44.45539" lon="5.57949">
        <ele>934</ele>
        <time>2018-10-18T14:05:06Z</time>
      </trkpt>
      <trkpt lat="44.45721" lon="5.58143">
        <ele>973</ele>
        <time>2018-10-18T14:06:06Z</time>
      </trkpt>
      <trkpt lat="44.45644" lon="5.58108">
        <ele>956</ele>
        <time>2018-10-18T14:07:06Z</time>
      </trkpt>
      <trkpt lat="44.45481" lon="5.58383">
        <ele>1011</ele>
        <time>2018-10-18T14:08:06Z</time>
      </trkpt>
      <trkpt lat="44.45368" lon="5.58133">
        <ele>1000</ele>
        <time>2018-10-18T14:09:06Z</time>
      </trkpt>
      <trkpt lat="44.45393" lon="5.58373">
        <ele>1023</ele>
        <time>2018-10-18T14:10:06Z</time>
      </trkpt>
      <trkpt lat="44.45357" lon="5.58495">
        <ele>1048</ele>
        <time>2018-10-18T14:11:06Z</time>
      </trkpt>
      <trkpt lat="44.45277" lon="5.58148">
        <ele>1047</ele>
        <time>2018-10-18T14:12:06Z</time>
      </trkpt>
      <trkpt lat="44.45047" lon="5.58092">
        <ele>1075</ele>
        <time>2018-10-18T14:13:06Z</time>
      </trkpt>
      <trkpt lat="44.44981" lon="5.58169">
        <ele>1088</ele>
        <time>2018-10-18T14:14:06Z</time>
      </trkpt>
      <trkpt lat="44.44974" lon="5.58312">
        <ele>1104</ele>
        <time>2018-10-18T14:15:06Z</time>
      </trkpt>
      <trkpt lat="44.45073" lon="5.58546">
        <ele>1127</ele>
        <time>2018-10-18T14:16:06Z</time>
      </trkpt>
      <trkpt lat="44.45094" lon="5.58771">
        <ele>1130</ele>
        <time>2018-10-18T14:17:06Z</time>
      </trkpt>
      <trkpt lat="44.45262" lon="5.58985">
        <ele>1159</ele>
        <time>2018-10-18T14:18:06Z</time>
      </trkpt>
      <trkpt lat="44.45251" lon="5.59103">
        <ele>1177</ele>
        <time>2018-10-18T14:19:06Z</time>
      </trkpt>
      <trkpt lat="44.45185" lon="5.59159">
        <ele>1174</ele>
        <time>2018-10-18T14:20:06Z</time>
      </trkpt>
      <trkpt lat="44.4528" lon="5.59292">
        <ele>1192</ele>
        <time>2018-10-18T14:21:06Z</time>
      </trkpt>
      <trkpt lat="44.45338" lon="5.59149">
        <ele>1202</ele>
        <time>2018-10-18T14:22:06Z</time>
      </trkpt>
      <trkpt lat="44.4555" lon="5.59118">
        <ele>1216</ele>
        <time>2018-10-18T14:23:06Z</time>
      </trkpt>
      <trkpt lat="44.45415" lon="5.59373">
        <ele>1249</ele>
        <time>2018-10-18T14:24:06Z</time>
      </trkpt>
      <trkpt lat="44.45389" lon="5.59531">
        <ele>1259</ele>
        <time>2018-10-18T14:25:06Z</time>
      </trkpt>
      <trkpt lat="44.4543" lon="5.59633">
        <ele>1283</ele>
        <time>2018-10-18T14:26:06Z</time>
      </trkpt>
      <trkpt lat="44.45371" lon="5.59766">
        <ele>1283</ele>
        <time>2018-10-18T14:27:06Z</time>
      </trkpt>
      <trkpt lat="44.45371" lon="5.59894">
        <ele>1305</ele>
        <time>2018-10-18T14:28:06Z</time>
      </trkpt>
      <trkpt lat="44.45295" lon="5.5997">
        <ele>1296</ele>
        <time>2018-10-18T14:29:06Z</time>
      </trkpt>
      <trkpt lat="44.45422" lon="5.59909">
        <ele>1328</ele>
        <time>2018-10-18T14:30:06Z</time>
      </trkpt>
      <trkpt lat="44.45466" lon="5.59746">
        <ele>1323</ele>
        <time>2018-10-18T14:31:06Z</time>
      </trkpt>
      <trkpt lat="44.45626" lon="5.5969">
        <ele>1334</ele>
        <time>2018-10-18T14:32:06Z</time>
      </trkpt>
      <trkpt lat="44.45732" lon="5.59878">
        <ele>1360</ele>
        <time>2018-10-18T14:33:06Z</time>
      </trkpt>
      <trkpt lat="44.45695" lon="5.59945">
        <ele>1383</ele>
        <time>2018-10-18T14:34:06Z</time>
      </trkpt>
      <trkpt lat="44.4567" lon="5.60021">
        <ele>1400</ele>
        <time>2018-10-18T14:35:06Z</time>
      </trkpt>
      <trkpt lat="44.45655" lon="5.59924">
        <ele>1386</ele>
        <time>2018-10-18T14:36:06Z</time>
      </trkpt>
      <trkpt lat="44.45586" lon="5.5994">
        <ele>1392</ele>
        <time>2018-10-18T14:37:06Z</time>
      </trkpt>
      <trkpt lat="44.45532" lon="5.60067">
        <ele>1403</ele>
        <time>2018-10-18T14:38:06Z</time>
      </trkpt>
      <trkpt lat="44.45517" lon="5.60368">
        <ele>1434</ele>
        <time>2018-10-18T14:39:06Z</time>
      </trkpt>
      <trkpt lat="44.45477" lon="5.6046">
        <ele>1435</ele>
        <time>2018-10-18T14:40:06Z</time>
      </trkpt>
      <trkpt lat="44.45477" lon="5.60649">
        <ele>1452</ele>
        <time>2018-10-18T14:41:06Z</time>
      </trkpt>
      <trkpt lat="44.45692" lon="5.60721">
        <ele>1456</ele>
        <time>2018-10-18T14:42:06Z</time>
      </trkpt>
      <trkpt lat="44.45827" lon="5.60976">
        <ele>1454</ele>
        <time>2018-10-18T14:43:06Z</time>
      </trkpt>
      <trkpt lat="44.4583" lon="5.61149">
        <ele>1449</ele>
        <time>2018-10-18T14:44:06Z</time>
      </trkpt>
      <trkpt lat="44.46009" lon="5.61267">
        <ele>1447</ele>
        <time>2018-10-18T14:45:06Z</time>
      </trkpt>
      <trkpt lat="44.46169" lon="5.61154">
        <ele>1443</ele>
        <time>2018-10-18T14:46:06Z</time>
      </trkpt>
      <trkpt lat="44.46464" lon="5.6119">
        <ele>1418</ele>
        <time>2018-10-18T14:47:06Z</time>
      </trkpt>
      <trkpt lat="44.46562" lon="5.6141">
        <ele>1380</ele>
        <time>2018-10-18T14:48:06Z</time>
      </trkpt>
      <trkpt lat="44.46439" lon="5.61302">
        <ele>1375</ele>
        <time>2018-10-18T14:49:06Z</time>
      </trkpt>
      <trkpt lat="44.46286" lon="5.61358">
        <ele>1363</ele>
        <time>2018-10-18T14:50:06Z</time>
      </trkpt>
      <trkpt lat="44.46533" lon="5.61563">
        <ele>1328</ele>
        <time>2018-10-18T14:51:06Z</time>
      </trkpt>
      <trkpt lat="44.4685" lon="5.61976">
        <ele>1283</ele>
        <time>2018-10-18T14:52:06Z</time>
      </trkpt>
      <trkpt lat="44.46548" lon="5.61854">
        <ele>1270</ele>
        <time>2018-10-18T14:53:06Z</time>
      </trkpt>
      <trkpt lat="44.46511" lon="5.61971">
        <ele>1261</ele>
        <time>2018-10-18T14:54:06Z</time>
      </trkpt>
      <trkpt lat="44.46592" lon="5.62246">
        <ele>1240</ele>
        <time>2018-10-18T14:55:06Z</time>
      </trkpt>
      <trkpt lat="44.46686" lon="5.62568">
        <ele>1234</ele>
        <time>2018-10-18T14:56:06Z</time>
      </trkpt>
      <trkpt lat="44.46621" lon="5.62854">
        <ele>1251</ele>
        <time>2018-10-18T14:57:06Z</time>
      </trkpt>
      <trkpt lat="44.46635" lon="5.63083">
        <ele>1234</ele>
        <time>2018-10-18T14:58:06Z</time>
      </trkpt>
      <trkpt lat="44.4653" lon="5.63298">
        <ele>1222</ele>
        <time>2018-10-18T14:59:06Z</time>
      </trkpt>
      <trkpt lat="44.46482" lon="5.63451">
        <ele>1215</ele>
        <time>2018-10-18T15:00:06Z</time>
      </trkpt>
      <trkpt lat="44.4653" lon="5.63665">
        <ele>1192</ele>
        <time>2018-10-18T15:01:06Z</time>
      </trkpt>
      <trkpt lat="44.4653" lon="5.63502">
        <ele>1194</ele>
        <time>2018-10-18T15:02:06Z</time>
      </trkpt>
      <trkpt lat="44.46657" lon="5.63334">
        <ele>1173</ele>
        <time>2018-10-18T15:03:06Z</time>
      </trkpt>
      <trkpt lat="44.46621" lon="5.63548">
        <ele>1159</ele>
        <time>2018-10-18T15:04:06Z</time>
      </trkpt>
      <trkpt lat="44.46653" lon="5.63752">
        <ele>1144</ele>
        <time>2018-10-18T15:05:06Z</time>
      </trkpt>
      <trkpt lat="44.46683" lon="5.63487">
        <ele>1136</ele>
        <time>2018-10-18T15:06:06Z</time>
      </trkpt>
      <trkpt lat="44.46897" lon="5.63318">
        <ele>1100</ele>
        <time>2018-10-18T15:07:06Z</time>
      </trkpt>
      <trkpt lat="44.4701" lon="5.63129">
        <ele>1079</ele>
        <time>2018-10-18T15:08:06Z</time>
      </trkpt>
      <trkpt lat="44.46996" lon="5.63277">
        <ele>1073</ele>
        <time>2018-10-18T15:09:06Z</time>
      </trkpt>
      <trkpt lat="44.47072" lon="5.63175">
        <ele>1057</ele>
        <time>2018-10-18T15:10:06Z</time>
      </trkpt>
      <trkpt lat="44.47069" lon="5.629">
        <ele>1067</ele>
        <time>2018-10-18T15:11:06Z</time>
      </trkpt>
      <trkpt lat="44.47134" lon="5.62782">
        <ele>1078</ele>
        <time>2018-10-18T15:12:06Z</time>
      </trkpt>
      <trkpt lat="44.47309" lon="5.63099">
        <ele>1048</ele>
        <time>2018-10-18T15:13:06Z</time>
      </trkpt>
      <trkpt lat="44.47316" lon="5.63237">
        <ele>1042</ele>
        <time>2018-10-18T15:14:06Z</time>
      </trkpt>
      <trkpt lat="44.47385" lon="5.6342">
        <ele>1040</ele>
        <time>2018-10-18T15:15:06Z</time>
      </trkpt>
      <trkpt lat="44.47309" lon="5.63589">
        <ele>1019</ele>
        <time>2018-10-18T15:16:06Z</time>
      </trkpt>
      <trkpt lat="44.47342" lon="5.63803">
        <ele>1005</ele>
        <time>2018-10-18T15:17:06Z</time>
      </trkpt>
      <trkpt lat="44.47251" lon="5.63783">
        <ele>996</ele>
        <time>2018-10-18T15:18:06Z</time>
      </trkpt>
      <trkpt lat="44.47218" lon="5.63681">
        <ele>998</ele>
        <time>2018-10-18T15:19:06Z</time>
      </trkpt>
      <trkpt lat="44.47141" lon="5.6364">
        <ele>994</ele>
        <time>2018-10-18T15:20:06Z</time>
      </trkpt>
      <trkpt lat="44.47094" lon="5.63798">
        <ele>985</ele>
        <time>2018-10-18T15:21:06Z</time>
      </trkpt>
      <trkpt lat="44.47149" lon="5.64079">
        <ele>966</ele>
        <time>2018-10-18T15:22:06Z</time>
      </trkpt>
      <trkpt lat="44.47236" lon="5.64359">
        <ele>952</ele>
        <time>2018-10-18T15:23:06Z</time>
      </trkpt>
      <trkpt lat="44.47273" lon="5.64273">
        <ele>943</ele>
        <time>2018-10-18T15:24:06Z</time>
      </trkpt>
      <trkpt lat="44.47294" lon="5.64467">
        <ele>932</ele>
        <time>2018-10-18T15:25:06Z</time>
      </trkpt>
      <trkpt lat="44.4728" lon="5.64507">
        <ele>932</ele>
        <time>2018-10-18T15:26:06Z</time>
      </trkpt>
      <trkpt lat="44.47324" lon="5.64711">
        <ele>909</ele>
        <time>2018-10-18T15:27:06Z</time>
      </trkpt>
      <trkpt lat="44.47262" lon="5.64946">
        <ele>912</ele>
        <time>2018-10-18T15:28:06Z</time>
      </trkpt>
      <trkpt lat="44.47338" lon="5.64844">
        <ele>898</ele>
        <time>2018-10-18T15:29:06Z</time>
      </trkpt>
      <trkpt lat="44.4732" lon="5.65048">
        <ele>889</ele>
        <time>2018-10-18T15:30:06Z</time>
      </trkpt>
      <trkpt lat="44.47517" lon="5.65497">
        <ele>883</ele>
        <time>2018-10-18T15:31:06Z</time>
      </trkpt>
      <trkpt lat="44.47269" lon="5.65827">
        <ele>847</ele>
        <time>2018-10-18T15:32:06Z</time>
      </trkpt>
      <trkpt lat="44.47145" lon="5.66184">
        <ele>830</ele>
        <time>2018-10-18T15:33:06Z</time>
      </trkpt>
      <trkpt lat="44.47284" lon="5.66408">
        <ele>826</ele>
        <time>2018-10-18T15:34:06Z</time>
      </trkpt>
      <trkpt lat="44.47145" lon="5.66551">
        <ele>818</ele>
        <time>2018-10-18T15:35:06Z</time>
      </trkpt>
      <trkpt lat="44.46948" lon="5.66776">
        <ele>814</ele>
        <time>2018-10-18T15:36:06Z</time>
      </trkpt>
      <trkpt lat="44.46635" lon="5.67592">
        <ele>794</ele>
        <time>2018-10-18T15:37:06Z</time>
      </trkpt>
      <trkpt lat="44.46541" lon="5.68133">
        <ele>782</ele>
        <time>2018-10-18T15:38:06Z</time>
      </trkpt>
      <trkpt lat="44.46424" lon="5.68756">
        <ele>765</ele>
        <time>2018-10-18T15:39:06Z</time>
      </trkpt>
      <trkpt lat="44.45987" lon="5.69389">
        <ele>751</ele>
        <time>2018-10-18T15:40:06Z</time>
      </trkpt>
      <trkpt lat="44.46111" lon="5.69603">
        <ele>760</ele>
        <time>2018-10-18T15:41:06Z</time>
      </trkpt>
      <trkpt lat="44.4614" lon="5.6992">
        <ele>772</ele>
        <time>2018-10-18T15:42:06Z</time>
      </trkpt>
      <trkpt lat="44.46453" lon="5.69675">
        <ele>793</ele>
        <time>2018-10-18T15:43:06Z</time>
      </trkpt>
      <trkpt lat="44.46744" lon="5.69889">
        <ele>773</ele>
        <time>2018-10-18T15:44:06Z</time>
      </trkpt>
      <trkpt lat="44.47094" lon="5.69858">
        <ele>778</ele>
        <time>2018-10-18T15:45:06Z</time>
      </trkpt>
      <trkpt lat="44.47487" lon="5.70124">
        <ele>766</ele>
        <time>2018-10-18T15:46:06Z</time>
      </trkpt>
      <trkpt lat="44.4783" lon="5.71349">
        <ele>713</ele>
        <time>2018-10-18T15:47:06Z</time>
      </trkpt>
      <trkpt lat="44.48063" lon="5.71645">
        <ele>705</ele>
        <time>2018-10-18T15:48:06Z</time>
      </trkpt>
      <trkpt lat="44.48318" lon="5.72053">
        <ele>705</ele>
        <time>2018-10-18T15:49:06Z</time>
      </trkpt>
      <trkpt lat="44.48711" lon="5.72267">
        <ele>713</ele>
        <time>2018-10-18T15:50:06Z</time>
      </trkpt>
      <trkpt lat="44.48769" lon="5.72441">
        <ele>718</ele>
        <time>2018-10-18T15:51:06Z</time>
      </trkpt>
      <trkpt lat="44.48857" lon="5.729">
        <ele>718</ele>
        <time>2018-10-18T15:52:06Z</time>
      </trkpt>
      <trkpt lat="44.4909" lon="5.73165">
        <ele>721</ele>
        <time>2018-10-18T15:53:06Z</time>
      </trkpt>
      <trkpt lat="44.49162" lon="5.73635">
        <ele>725</ele>
        <time>2018-10-18T15:54:06Z</time>
      </trkpt>
      <trkpt lat="44.49206" lon="5.74196">
        <ele>737</ele>
        <time>2018-10-18T15:55:06Z</time>
      </trkpt>
      <trkpt lat="44.49002" lon="5.74646">
        <ele>741</ele>
        <time>2018-10-18T15:56:06Z</time>
      </trkpt>
      <trkpt lat="44.48624" lon="5.75166">
        <ele>751</ele>
        <time>2018-10-18T15:57:06Z</time>
      </trkpt>
      <trkpt lat="44.48391" lon="5.7537">
        <ele>756</ele>
        <time>2018-10-18T15:58:06Z</time>
      </trkpt>
      <trkpt lat="44.48332" lon="5.75503">
        <ele>762</ele>
        <time>2018-10-18T15:59:06Z</time>
      </trkpt>
      <trkpt lat="44.48157" lon="5.75625">
        <ele>756</ele>
        <time>2018-10-18T16:00:06Z</time>
      </trkpt>
      <trkpt lat="44.48136" lon="5.75901">
        <ele>744</ele>
        <time>2018-10-18T16:01:06Z</time>
      </trkpt>
      <trkpt lat="44.48201" lon="5.76177">
        <ele>732</ele>
        <time>2018-10-18T16:02:06Z</time>
      </trkpt>
      <trkpt lat="44.48259" lon="5.7637">
        <ele>732</ele>
        <time>2018-10-18T16:03:06Z</time>
      </trkpt>
      <trkpt lat="44.4815" lon="5.76524">
        <ele>738</ele>
        <time>2018-10-18T16:04:06Z</time>
      </trkpt>
      <trkpt lat="44.48077" lon="5.7683">
        <ele>742</ele>
        <time>2018-10-18T16:05:06Z</time>
      </trkpt>
      <trkpt lat="44.48267" lon="5.77054">
        <ele>749</ele>
        <time>2018-10-18T16:06:06Z</time>
      </trkpt>
      <trkpt lat="44.48339" lon="5.77295">
        <ele>750</ele>
        <time>2018-10-18T16:07:06Z</time>
      </trkpt>
      <trkpt lat="44.485" lon="5.77805">
        <ele>763</ele>
        <time>2018-10-18T16:08:06Z</time>
      </trkpt>
      <trkpt lat="44.48456" lon="5.78078">
        <ele>772</ele>
        <time>2018-10-18T16:09:06Z</time>
      </trkpt>
      <trkpt lat="44.483" lon="5.78248">
        <ele>778</ele>
        <time>2018-10-18T16:10:06Z</time>
      </trkpt>
      <trkpt lat="44.48075" lon="5.78351">
        <ele>773</ele>
        <time>2018-10-18T16:11:06Z</time>
      </trkpt>
      <trkpt lat="44.4782" lon="5.78382">
        <ele>780</ele>
        <time>2018-10-18T16:12:06Z</time>
      </trkpt>
      <trkpt lat="44.47668" lon="5.78388">
        <ele>778</ele>
        <time>2018-10-18T16:13:06Z</time>
      </trkpt>
      <trkpt lat="44.47582" lon="5.78691">
        <ele>771</ele>
        <time>2018-10-18T16:14:06Z</time>
      </trkpt>
      <trkpt lat="44.47625" lon="5.79074">
        <ele>774</ele>
        <time>2018-10-18T16:15:06Z</time>
      </trkpt>
      <trkpt lat="44.47612" lon="5.79371">
        <ele>786</ele>
        <time>2018-10-18T16:16:06Z</time>
      </trkpt>
      <trkpt lat="44.47595" lon="5.79832">
        <ele>794</ele>
        <time>2018-10-18T16:17:06Z</time>
      </trkpt>
      <trkpt lat="44.47603" lon="5.80269">
        <ele>791</ele>
        <time>2018-10-18T16:18:06Z</time>
      </trkpt>
      <trkpt lat="44.47582" lon="5.80494">
        <ele>791</ele>
        <time>2018-10-18T16:19:06Z</time>
      </trkpt>
      <trkpt lat="44.47681" lon="5.80597">
        <ele>791</ele>
        <time>2018-10-18T16:20:06Z</time>
      </trkpt>
      <trkpt lat="44.47664" lon="5.8138">
        <ele>799</ele>
        <time>2018-10-18T16:21:06Z</time>
      </trkpt>
      <trkpt lat="44.47534" lon="5.82066">
        <ele>809</ele>
        <time>2018-10-18T16:22:06Z</time>
      </trkpt>
      <trkpt lat="44.47677" lon="5.82375">
        <ele>819</ele>
        <time>2018-10-18T16:23:06Z</time>
      </trkpt>
      <trkpt lat="44.47872" lon="5.82327">
        <ele>824</ele>
        <time>2018-10-18T16:24:06Z</time>
      </trkpt>
      <trkpt lat="44.4795" lon="5.82667">
        <ele>832</ele>
        <time>2018-10-18T16:25:06Z</time>
      </trkpt>
      <trkpt lat="44.48145" lon="5.82964">
        <ele>843</ele>
        <time>2018-10-18T16:26:06Z</time>
      </trkpt>
      <trkpt lat="44.48456" lon="5.83085">
        <ele>853</ele>
        <time>2018-10-18T16:27:06Z</time>
      </trkpt>
      <trkpt lat="44.48781" lon="5.82958">
        <ele>868</ele>
        <time>2018-10-18T16:28:06Z</time>
      </trkpt>
      <trkpt lat="44.48941" lon="5.83025">
        <ele>874</ele>
        <time>2018-10-18T16:29:06Z</time>
      </trkpt>
      <trkpt lat="44.49166" lon="5.82988">
        <ele>877</ele>
        <time>2018-10-18T16:30:06Z</time>
      </trkpt>
      <trkpt lat="44.49158" lon="5.83158">
        <ele>883</ele>
        <time>2018-10-18T16:31:06Z</time>
      </trkpt>
      <trkpt lat="44.49253" lon="5.83358">
        <ele>891</ele>
        <time>2018-10-18T16:32:06Z</time>
      </trkpt>
      <trkpt lat="44.49357" lon="5.83923">
        <ele>911</ele>
        <time>2018-10-18T16:33:06Z</time>
      </trkpt>
      <trkpt lat="44.49534" lon="5.84263">
        <ele>924</ele>
        <time>2018-10-18T16:34:06Z</time>
      </trkpt>
      <trkpt lat="44.49521" lon="5.84536">
        <ele>932</ele>
        <time>2018-10-18T16:35:06Z</time>
      </trkpt>
      <trkpt lat="44.49664" lon="5.84421">
        <ele>935</ele>
        <time>2018-10-18T16:36:06Z</time>
      </trkpt>
      <trkpt lat="44.49928" lon="5.84675">
        <ele>961</ele>
        <time>2018-10-18T16:37:06Z</time>
      </trkpt>
      <trkpt lat="44.50288" lon="5.84888">
        <ele>996</ele>
        <time>2018-10-18T16:38:06Z</time>
      </trkpt>
      <trkpt lat="44.50452" lon="5.84949">
        <ele>1004</ele>
        <time>2018-10-18T16:39:06Z</time>
      </trkpt>
      <trkpt lat="44.50582" lon="5.85046">
        <ele>1024</ele>
        <time>2018-10-18T16:40:06Z</time>
      </trkpt>
      <trkpt lat="44.50599" lon="5.85246">
        <ele>1045</ele>
        <time>2018-10-18T16:41:06Z</time>
      </trkpt>
      <trkpt lat="44.50669" lon="5.85373">
        <ele>1049</ele>
        <time>2018-10-18T16:42:06Z</time>
      </trkpt>
      <trkpt lat="44.50621" lon="5.85495">
        <ele>1035</ele>
        <time>2018-10-18T16:43:06Z</time>
      </trkpt>
      <trkpt lat="44.50781" lon="5.85823">
        <ele>1005</ele>
        <time>2018-10-18T16:44:06Z</time>
      </trkpt>
      <trkpt lat="44.50816" lon="5.85999">
        <ele>997</ele>
        <time>2018-10-18T16:45:06Z</time>
      </trkpt>
      <trkpt lat="44.51184" lon="5.86442">
        <ele>974</ele>
        <time>2018-10-18T16:46:06Z</time>
      </trkpt>
      <trkpt lat="44.51067" lon="5.86866">
        <ele>954</ele>
        <time>2018-10-18T16:47:06Z</time>
      </trkpt>
      <trkpt lat="44.51119" lon="5.86988">
        <ele>948</ele>
        <time>2018-10-18T16:48:06Z</time>
      </trkpt>
      <trkpt lat="44.51114" lon="5.87231">
        <ele>944</ele>
        <time>2018-10-18T16:49:06Z</time>
      </trkpt>
      <trkpt lat="44.5114" lon="5.87862">
        <ele>924</ele>
        <time>2018-10-18T16:50:06Z</time>
      </trkpt>
      <trkpt lat="44.50573" lon="5.88341">
        <ele>938</ele>
        <time>2018-10-18T16:51:06Z</time>
      </trkpt>
      <trkpt lat="44.50573" lon="5.88505">
        <ele>935</ele>
        <time>2018-10-18T16:52:06Z</time>
      </trkpt>
      <trkpt lat="44.50465" lon="5.88663">
        <ele>944</ele>
        <time>2018-10-18T16:53:06Z</time>
      </trkpt>
      <trkpt lat="44.50556" lon="5.88809">
        <ele>959</ele>
        <time>2018-10-18T16:54:06Z</time>
      </trkpt>
      <trkpt lat="44.50569" lon="5.89215">
        <ele>995</ele>
        <time>2018-10-18T16:55:06Z</time>
      </trkpt>
      <trkpt lat="44.50383" lon="5.88985">
        <ele>1014</ele>
        <time>2018-10-18T16:56:06Z</time>
      </trkpt>
      <trkpt lat="44.50318" lon="5.89112">
        <ele>1031</ele>
        <time>2018-10-18T16:57:06Z</time>
      </trkpt>
      <trkpt lat="44.50426" lon="5.89215">
        <ele>1044</ele>
        <time>2018-10-18T16:58:06Z</time>
      </trkpt>
      <trkpt lat="44.50474" lon="5.89397">
        <ele>1062</ele>
        <time>2018-10-18T16:59:06Z</time>
      </trkpt>
      <trkpt lat="44.50599" lon="5.89561">
        <ele>1083</ele>
        <time>2018-10-18T17:00:06Z</time>
      </trkpt>
      <trkpt lat="44.50491" lon="5.89537">
        <ele>1088</ele>
        <time>2018-10-18T17:01:06Z</time>
      </trkpt>
      <trkpt lat="44.50469" lon="5.8967">
        <ele>1096</ele>
        <time>2018-10-18T17:02:06Z</time>
      </trkpt>
      <trkpt lat="44.50677" lon="5.89846">
        <ele>1135</ele>
        <time>2018-10-18T17:03:06Z</time>
      </trkpt>
      <trkpt lat="44.50571" lon="5.89892">
        <ele>1141</ele>
        <time>2018-10-18T17:04:06Z</time>
      </trkpt>
      <trkpt lat="44.50538" lon="5.90066">
        <ele>1161</ele>
        <time>2018-10-18T17:05:06Z</time>
      </trkpt>
      <trkpt lat="44.50666" lon="5.90005">
        <ele>1169</ele>
        <time>2018-10-18T17:06:06Z</time>
      </trkpt>
      <trkpt lat="44.50618" lon="5.90178">
        <ele>1194</ele>
        <time>2018-10-18T17:07:06Z</time>
      </trkpt>
      <trkpt lat="44.50513" lon="5.9029">
        <ele>1194</ele>
        <time>2018-10-18T17:08:06Z</time>
      </trkpt>
      <trkpt lat="44.50724" lon="5.90326">
        <ele>1238</ele>
        <time>2018-10-18T17:09:06Z</time>
      </trkpt>
      <trkpt lat="44.5056" lon="5.90408">
        <ele>1240</ele>
        <time>2018-10-18T17:10:06Z</time>
      </trkpt>
      <trkpt lat="44.50713" lon="5.90413">
        <ele>1268</ele>
        <time>2018-10-18T17:11:06Z</time>
      </trkpt>
      <trkpt lat="44.50786" lon="5.90515">
        <ele>1284</ele>
        <time>2018-10-18T17:12:06Z</time>
      </trkpt>
      <trkpt lat="44.50702" lon="5.90469">
        <ele>1288</ele>
        <time>2018-10-18T17:13:06Z</time>
      </trkpt>
      <trkpt lat="44.50604" lon="5.90505">
        <ele>1288</ele>
        <time>2018-10-18T17:14:06Z</time>
      </trkpt>
      <trkpt lat="44.50571" lon="5.90566">
        <ele>1293</ele>
        <time>2018-10-18T17:15:06Z</time>
      </trkpt>
      <trkpt lat="44.5064" lon="5.90673">
        <ele>1308</ele>
        <time>2018-10-18T17:16:06Z</time>
      </trkpt>
      <trkpt lat="44.50549" lon="5.90816">
        <ele>1325</ele>
        <time>2018-10-18T17:17:06Z</time>
      </trkpt>
      <trkpt lat="44.50451" lon="5.90831">
        <ele>1332</ele>
        <time>2018-10-18T17:18:06Z</time>
      </trkpt>
      <trkpt lat="44.50385" lon="5.90775">
        <ele>1329</ele>
        <time>2018-10-18T17:19:06Z</time>
      </trkpt>
      <trkpt lat="44.50229" lon="5.90857">
        <ele>1346</ele>
        <time>2018-10-18T17:20:06Z</time>
      </trkpt>
      <trkpt lat="44.50145" lon="5.90939">
        <ele>1347</ele>
        <time>2018-10-18T17:21:06Z</time>
      </trkpt>
      <trkpt lat="44.50131" lon="5.9103">
        <ele>1351</ele>
        <time>2018-10-18T17:22:06Z</time>
      </trkpt>
      <trkpt lat="44.50138" lon="5.91255">
        <ele>1375</ele>
        <time>2018-10-18T17:23:06Z</time>
      </trkpt>
      <trkpt lat="44.50382" lon="5.91255">
        <ele>1392</ele>
        <time>2018-10-18T17:24:06Z</time>
      </trkpt>
      <trkpt lat="44.50229" lon="5.9149">
        <ele>1419</ele>
        <time>2018-10-18T17:25:06Z</time>
      </trkpt>
      <trkpt lat="44.50327" lon="5.91551">
        <ele>1440</ele>
        <time>2018-10-18T17:26:06Z</time>
      </trkpt>
      <trkpt lat="44.50167" lon="5.91663">
        <ele>1449</ele>
        <time>2018-10-18T17:27:06Z</time>
      </trkpt>
      <trkpt lat="44.50422" lon="5.91571">
        <ele>1454</ele>
        <time>2018-10-18T17:28:06Z</time>
      </trkpt>
      <trkpt lat="44.50273" lon="5.9175">
        <ele>1480</ele>
        <time>2018-10-18T17:29:06Z</time>
      </trkpt>
      <trkpt lat="44.50076" lon="5.91944">
        <ele>1490</ele>
        <time>2018-10-18T17:30:06Z</time>
      </trkpt>
      <trkpt lat="44.4996" lon="5.92219">
        <ele>1511</ele>
        <time>2018-10-18T17:31:06Z</time>
      </trkpt>
      <trkpt lat="44.49894" lon="5.92403">
        <ele>1530</ele>
        <time>2018-10-18T17:32:06Z</time>
      </trkpt>
      <trkpt lat="44.4981" lon="5.92801">
        <ele>1536</ele>
        <time>2018-10-18T17:33:06Z</time>
      </trkpt>
      <trkpt lat="44.49596" lon="5.93087">
        <ele>1500</ele>
        <time>2018-10-18T17:34:06Z</time>
      </trkpt>
      <trkpt lat="44.49603" lon="5.9348">
        <ele>1526</ele>
        <time>2018-10-18T17:35:06Z</time>
      </trkpt>
      <trkpt lat="44.49301" lon="5.93761">
        <ele>1505</ele>
        <time>2018-10-18T17:36:06Z</time>
      </trkpt>
      <trkpt lat="44.4925" lon="5.94378">
        <ele>1484</ele>
        <time>2018-10-18T17:37:06Z</time>
      </trkpt>
      <trkpt lat="44.49126" lon="5.9448">
        <ele>1462</ele>
        <time>2018-10-18T17:38:06Z</time>
      </trkpt>
      <trkpt lat="44.49009" lon="5.94843">
        <ele>1423</ele>
        <time>2018-10-18T17:39:06Z</time>
      </trkpt>
      <trkpt lat="44.49155" lon="5.94817">
        <ele>1447</ele>
        <time>2018-10-18T17:40:06Z</time>
      </trkpt>
      <trkpt lat="44.49286" lon="5.9522">
        <ele>1412</ele>
        <time>2018-10-18T17:41:06Z</time>
      </trkpt>
      <trkpt lat="44.49264" lon="5.95557">
        <ele>1394</ele>
        <time>2018-10-18T17:42:06Z</time>
      </trkpt>
      <trkpt lat="44.49181" lon="5.95848">
        <ele>1372</ele>
        <time>2018-10-18T17:43:06Z</time>
      </trkpt>
      <trkpt lat="44.49206" lon="5.9618">
        <ele>1355</ele>
        <time>2018-10-18T17:44:06Z</time>
      </trkpt>
      <trkpt lat="44.49377" lon="5.9645">
        <ele>1346</ele>
        <time>2018-10-18T17:45:06Z</time>
      </trkpt>
      <trkpt lat="44.49432" lon="5.96649">
        <ele>1331</ele>
        <time>2018-10-18T17:46:06Z</time>
      </trkpt>
      <trkpt lat="44.49763" lon="5.96848">
        <ele>1332</ele>
        <time>2018-10-18T17:47:06Z</time>
      </trkpt>
      <trkpt lat="44.49872" lon="5.97129">
        <ele>1304</ele>
        <time>2018-10-18T17:48:06Z</time>
      </trkpt>
      <trkpt lat="44.50171" lon="5.97313">
        <ele>1309</ele>
        <time>2018-10-18T17:49:06Z</time>
      </trkpt>
      <trkpt lat="44.50466" lon="5.97415">
        <ele>1310</ele>
        <time>2018-10-18T17:50:06Z</time>
      </trkpt>
      <trkpt lat="44.5056" lon="5.97542">
        <ele>1306</ele>
        <time>2018-10-18T17:51:06Z</time>
      </trkpt>
      <trkpt lat="44.5087" lon="5.97609">
        <ele>1300</ele>
        <time>2018-10-18T17:52:06Z</time>
      </trkpt>
      <trkpt lat="44.51073" lon="5.97512">
        <ele>1314</ele>
        <time>2018-10-18T17:53:06Z</time>
      </trkpt>
      <trkpt lat="44.51183" lon="5.97578">
        <ele>1304</ele>
        <time>2018-10-18T17:54:06Z</time>
      </trkpt>
      <trkpt lat="44.51488" lon="5.97476">
        <ele>1306</ele>
        <time>2018-10-18T17:55:06Z</time>
      </trkpt>
      <trkpt lat="44.5179" lon="5.9743">
        <ele>1320</ele>
        <time>2018-10-18T17:56:06Z</time>
      </trkpt>
      <trkpt lat="44.51823" lon="5.97568">
        <ele>1301</ele>
        <time>2018-10-18T17:57:06Z</time>
      </trkpt>
      <trkpt lat="44.51787" lon="5.97721">
        <ele>1281</ele>
        <time>2018-10-18T17:58:06Z</time>
      </trkpt>
      <trkpt lat="44.52016" lon="5.97798">
        <ele>1275</ele>
        <time>2018-10-18T17:59:06Z</time>
      </trkpt>
      <trkpt lat="44.52252" lon="5.97747">
        <ele>1266</ele>
        <time>2018-10-18T18:00:06Z</time>
      </trkpt>
      <trkpt lat="44.52223" lon="5.97879">
        <ele>1245</ele>
        <time>2018-10-18T18:01:06Z</time>
      </trkpt>
      <trkpt lat="44.52493" lon="5.97828">
        <ele>1204</ele>
        <time>2018-10-18T18:02:06Z</time>
      </trkpt>
      <trkpt lat="44.52747" lon="5.97869">
        <ele>1142</ele>
        <time>2018-10-18T18:03:06Z</time>
      </trkpt>
      <trkpt lat="44.52933" lon="5.98043">
        <ele>1112</ele>
        <time>2018-10-18T18:04:06Z</time>
      </trkpt>
      <trkpt lat="44.53107" lon="5.98022">
        <ele>1083</ele>
        <time>2018-10-18T18:05:06Z</time>
      </trkpt>
      <trkpt lat="44.5318" lon="5.98134">
        <ele>1073</ele>
        <time>2018-10-18T18:06:06Z</time>
      </trkpt>
      <trkpt lat="44.53195" lon="5.98374">
        <ele>1070</ele>
        <time>2018-10-18T18:07:06Z</time>
      </trkpt>
      <trkpt lat="44.53111" lon="5.9864">
        <ele>1064</ele>
        <time>2018-10-18T18:08:06Z</time>
      </trkpt>
      <trkpt lat="44.53035" lon="5.98941">
        <ele>1058</ele>
        <time>2018-10-18T18:09:06Z</time>
      </trkpt>
      <trkpt lat="44.52912" lon="5.9901">
        <ele>1052</ele>
        <time>2018-10-18T18:10:06Z</time>
      </trkpt>
      <trkpt lat="44.5283" lon="5.99212">
        <ele>1056</ele>
        <time>2018-10-18T18:11:06Z</time>
      </trkpt>
      <trkpt lat="44.52629" lon="5.99551">
        <ele>1047</ele>
        <time>2018-10-18T18:12:06Z</time>
      </trkpt>
      <trkpt lat="44.5247" lon="5.99739">
        <ele>1050</ele>
        <time>2018-10-18T18:13:06Z</time>
      </trkpt>
      <trkpt lat="44.52377" lon="5.99912">
        <ele>1041</ele>
        <time>2018-10-18T18:14:06Z</time>
      </trkpt>
      <trkpt lat="44.52316" lon="5.99963">
        <ele>1034</ele>
        <time>2018-10-18T18:15:06Z</time>
      </trkpt>
      <trkpt lat="44.52274" lon="6.00085">
        <ele>1025</ele>
        <time>2018-10-18T18:16:06Z</time>
      </trkpt>
      <trkpt lat="44.52151" lon="6.00194">
        <ele>1014</ele>
        <time>2018-10-18T18:17:06Z</time>
      </trkpt>
      <trkpt lat="44.52403" lon="6.00533">
        <ele>985</ele>
        <time>2018-10-18T18:18:06Z</time>
      </trkpt>
      <trkpt lat="44.52249" lon="6.00764">
        <ele>968</ele>
        <time>2018-10-18T18:19:06Z</time>
      </trkpt>
      <trkpt lat="44.52532" lon="6.00728">
        <ele>970</ele>
        <time>2018-10-18T18:20:06Z</time>
      </trkpt>
      <trkpt lat="44.52758" lon="6.01002">
        <ele>948</ele>
        <time>2018-10-18T18:21:06Z</time>
      </trkpt>
      <trkpt lat="44.53036" lon="6.01117">
        <ele>943</ele>
        <time>2018-10-18T18:22:06Z</time>
      </trkpt>
      <trkpt lat="44.53304" lon="6.01016">
        <ele>948</ele>
        <time>2018-10-18T18:23:06Z</time>
      </trkpt>
      <trkpt lat="44.53581" lon="6.0106">
        <ele>957</ele>
        <time>2018-10-18T18:24:06Z</time>
      </trkpt>
      <trkpt lat="44.53612" lon="6.01341">
        <ele>955</ele>
        <time>2018-10-18T18:25:06Z</time>
      </trkpt>
      <trkpt lat="44.53478" lon="6.0137">
        <ele>951</ele>
        <time>2018-10-18T18:26:06Z</time>
      </trkpt>
      <trkpt lat="44.53386" lon="6.0155">
        <ele>957</ele>
        <time>2018-10-18T18:27:06Z</time>
      </trkpt>
      <trkpt lat="44.53288" lon="6.0168">
        <ele>960</ele>
        <time>2018-10-18T18:28:06Z</time>
      </trkpt>
      <trkpt lat="44.53211" lon="6.01709">
        <ele>952</ele>
        <time>2018-10-18T18:29:06Z</time>
      </trkpt>
      <trkpt lat="44.5319" lon="6.01882">
        <ele>946</ele>
        <time>2018-10-18T18:30:06Z</time>
      </trkpt>
      <trkpt lat="44.53185" lon="6.02142">
        <ele>927</ele>
        <time>2018-10-18T18:31:06Z</time>
      </trkpt>
      <trkpt lat="44.53159" lon="6.02315">
        <ele>906</ele>
        <time>2018-10-18T18:32:06Z</time>
      </trkpt>
      <trkpt lat="44.5317" lon="6.02467">
        <ele>899</ele>
        <time>2018-10-18T18:33:06Z</time>
      </trkpt>
      <trkpt lat="44.5318" lon="6.02763">
        <ele>885</ele>
        <time>2018-10-18T18:34:06Z</time>
      </trkpt>
      <trkpt lat="44.5335" lon="6.03001">
        <ele>863</ele>
        <time>2018-10-18T18:35:06Z</time>
      </trkpt>
      <trkpt lat="44.53499" lon="6.03261">
        <ele>862</ele>
        <time>2018-10-18T18:36:06Z</time>
      </trkpt>
      <trkpt lat="44.53386" lon="6.03326">
        <ele>846</ele>
        <time>2018-10-18T18:37:06Z</time>
      </trkpt>
      <trkpt lat="44.53195" lon="6.03275">
        <ele>829</ele>
        <time>2018-10-18T18:38:06Z</time>
      </trkpt>
      <trkpt lat="44.53129" lon="6.03391">
        <ele>817</ele>
        <time>2018-10-18T18:39:06Z</time>
      </trkpt>
      <trkpt lat="44.52979" lon="6.03369">
        <ele>803</ele>
        <time>2018-10-18T18:40:06Z</time>
      </trkpt>
      <trkpt lat="44.52871" lon="6.0347">
        <ele>791</ele>
        <time>2018-10-18T18:41:06Z</time>
      </trkpt>
      <trkpt lat="44.52915" lon="6.03595">
        <ele>785</ele>
        <time>2018-10-18T18:42:06Z</time>
      </trkpt>
      <trkpt lat="44.52893" lon="6.03702">
        <ele>776</ele>
        <time>2018-10-18T18:43:06Z</time>
      </trkpt>
      <trkpt lat="44.53042" lon="6.03886">
        <ele>764</ele>
        <time>2018-10-18T18:44:06Z</time>
      </trkpt>
      <trkpt lat="44.53191" lon="6.04044">
        <ele>751</ele>
        <time>2018-10-18T18:45:06Z</time>
      </trkpt>
      <trkpt lat="44.533" lon="6.04356">
        <ele>758</ele>
        <time>2018-10-18T18:46:06Z</time>
      </trkpt>
      <trkpt lat="44.53569" lon="6.04687">
        <ele>759</ele>
        <time>2018-10-18T18:47:06Z</time>
      </trkpt>
      <trkpt lat="44.53748" lon="6.04999">
        <ele>767</ele>
        <time>2018-10-18T18:48:06Z</time>
      </trkpt>
      <trkpt lat="44.53759" lon="6.05152">
        <ele>766</ele>
        <time>2018-10-18T18:49:06Z</time>
      </trkpt>
      <trkpt lat="44.54075" lon="6.05202">
        <ele>780</ele>
        <time>2018-10-18T18:50:06Z</time>
      </trkpt>
      <trkpt lat="44.54533" lon="6.05361">
        <ele>798</ele>
        <time>2018-10-18T18:51:06Z</time>
      </trkpt>
      <trkpt lat="44.5459" lon="6.05643">
        <ele>784</ele>
        <time>2018-10-18T18:52:06Z</time>
      </trkpt>
      <trkpt lat="44.54749" lon="6.05895">
        <ele>768</ele>
        <time>2018-10-18T18:53:06Z</time>
      </trkpt>
      <trkpt lat="44.54713" lon="6.05968">
        <ele>761</ele>
        <time>2018-10-18T18:54:06Z</time>
      </trkpt>
      <trkpt lat="44.54867" lon="6.06097">
        <ele>760</ele>
        <time>2018-10-18T18:55:06Z</time>
      </trkpt>
      <trkpt lat="44.5495" lon="6.06429">
        <ele>755</ele>
        <time>2018-10-18T18:56:06Z</time>
      </trkpt>
      <trkpt lat="44.55083" lon="6.06747">
        <ele>745</ele>
        <time>2018-10-18T18:57:06Z</time>
      </trkpt>
      <trkpt lat="44.5531" lon="6.06855">
        <ele>753</ele>
        <time>2018-10-18T18:58:06Z</time>
      </trkpt>
      <trkpt lat="44.55608" lon="6.07086">
        <ele>765</ele>
        <time>2018-10-18T18:59:06Z</time>
      </trkpt>
      <trkpt lat="44.555" lon="6.07447">
        <ele>734</ele>
        <time>2018-10-18T19:00:06Z</time>
      </trkpt>
      <trkpt lat="44.55649" lon="6.07671">
        <ele>734</ele>
        <time>2018-10-18T19:01:06Z</time>
      </trkpt>
      <trkpt lat="44.55701" lon="6.07748">
        <ele>736</ele>
        <time>2018-10-18T19:02:06Z</time>
      </trkpt>
      <trkpt lat="44.55765" lon="6.07848">
        <ele>739</ele>
        <time>2018-10-18T19:03:06Z</time>
      </trkpt>
      <trkpt lat="44.55834" lon="6.07929">
        <ele>741</ele>
        <time>2018-10-18T19:04:06Z</time>
      </trkpt>
      <trkpt lat="44.55901" lon="6.07986">
        <ele>741</ele>
        <time>2018-10-18T19:05:06Z</time>
      </trkpt>
      <trkpt lat="44.55972" lon="6.08019">
        <ele>743</ele>
        <time>2018-10-18T19:06:06Z</time>
      </trkpt>
      <trkpt lat="44.56015" lon="6.08095">
        <ele>743</ele>
        <time>2018-10-18T19:07:06Z</time>
      </trkpt>
      <trkpt lat="44.56061" lon="6.08159">
        <ele>740</ele>
        <time>2018-10-18T19:08:06Z</time>
      </trkpt>
      <trkpt lat="44.56121" lon="6.08233">
        <ele>742</ele>
        <time>2018-10-18T19:09:06Z</time>
      </trkpt>
      <trkpt lat="44.56172" lon="6.0833">
        <ele>746</ele>
        <time>2018-10-18T19:10:06Z</time>
      </trkpt>
      <trkpt lat="44.56259" lon="6.08564">
        <ele>745</ele>
        <time>2018-10-18T19:11:06Z</time>
      </trkpt>
      <trkpt lat="44.56403" lon="6.08889">
        <ele>741</ele>
        <time>2018-10-18T19:12:06Z</time>
      </trkpt>
      <trkpt lat="44.5621" lon="6.09058">
        <ele>746</ele>
        <time>2018-10-18T19:13:06Z</time>
      </trkpt>
      <trkpt lat="44.56187" lon="6.09398">
        <ele>752</ele>
        <time>2018-10-18T19:14:06Z</time>
      </trkpt>
      <trkpt lat="44.56127" lon="6.09571">
        <ele>761</ele>
        <time>2018-10-18T19:15:06Z</time>
      </trkpt>
      <trkpt lat="44.56153" lon="6.09831">
        <ele>767</ele>
        <time>2018-10-18T19:16:06Z</time>
      </trkpt>
      <trkpt lat="44.5613" lon="6.10116">
        <ele>783</ele>
        <time>2018-10-18T19:17:06Z</time>
      </trkpt>
      <trkpt lat="44.56055" lon="6.10578">
        <ele>807</ele>
        <time>2018-10-18T19:18:06Z</time>
      </trkpt>
      <trkpt lat="44.55963" lon="6.10989">
        <ele>833</ele>
        <time>2018-10-18T19:19:06Z</time>
      </trkpt>
      <trkpt lat="44.55932" lon="6.11274">
        <ele>833</ele>
        <time>2018-10-18T19:20:06Z</time>
      </trkpt>
      <trkpt lat="44.55906" lon="6.11603">
        <ele>831</ele>
        <time>2018-10-18T19:21:06Z</time>
      </trkpt>
      <trkpt lat="44.5577" lon="6.11758">
        <ele>839</ele>
        <time>2018-10-18T19:22:06Z</time>
      </trkpt>
      <trkpt lat="44.55724" lon="6.11978">
        <ele>844</ele>
        <time>2018-10-18T19:23:06Z</time>
      </trkpt>
      <trkpt lat="44.55685" lon="6.12122">
        <ele>842</ele>
        <time>2018-10-18T19:24:06Z</time>
      </trkpt>
      <trkpt lat="44.55613" lon="6.1223">
        <ele>842</ele>
        <time>2018-10-18T19:25:06Z</time>
      </trkpt>
      <trkpt lat="44.55585" lon="6.12328">
        <ele>845</ele>
        <time>2018-10-18T19:26:06Z</time>
      </trkpt>
      <trkpt lat="44.55456" lon="6.12519">
        <ele>846</ele>
        <time>2018-10-18T19:27:06Z</time>
      </trkpt>
      <trkpt lat="44.55388" lon="6.12608">
        <ele>847</ele>
        <time>2018-10-18T19:28:06Z</time>
      </trkpt>
      <trkpt lat="44.55254" lon="6.1272">
        <ele>849</ele>
        <time>2018-10-18T19:29:06Z</time>
      </trkpt>
      <trkpt lat="44.55272" lon="6.12879">
        <ele>854</ele>
        <time>2018-10-18T19:30:06Z</time>
      </trkpt>
      <trkpt lat="44.55392" lon="6.12996">
        <ele>864</ele>
        <time>2018-10-18T19:31:06Z</time>
      </trkpt>
      <trkpt lat="44.55417" lon="6.1318">
        <ele>873</ele>
        <time>2018-10-18T19:32:06Z</time>
      </trkpt>
      <trkpt lat="44.55468" lon="6.13404">
        <ele>879</ele>
        <time>2018-10-18T19:33:06Z</time>
      </trkpt>
      <trkpt lat="44.55555" lon="6.1371">
        <ele>885</ele>
        <time>2018-10-18T19:34:06Z</time>
      </trkpt>
      <trkpt lat="44.55639" lon="6.14012">
        <ele>896</ele>
        <time>2018-10-18T19:35:06Z</time>
      </trkpt>
      <trkpt lat="44.55458" lon="6.13826">
        <ele>894</ele>
        <time>2018-10-18T19:36:06Z</time>
      </trkpt>
      <trkpt lat="44.5541" lon="6.13911">
        <ele>904</ele>
        <time>2018-10-18T19:37:06Z</time>
      </trkpt>
      <trkpt lat="44.55415" lon="6.14202">
        <ele>938</ele>
        <time>2018-10-18T19:38:06Z</time>
      </trkpt>
      <trkpt lat="44.55514" lon="6.14463">
        <ele>969</ele>
        <time>2018-10-18T19:39:06Z</time>
      </trkpt>
      <trkpt lat="44.55631" lon="6.14754">
        <ele>987</ele>
        <time>2018-10-18T19:40:06Z</time>
      </trkpt>
      <trkpt lat="44.55717" lon="6.1507">
        <ele>988</ele>
        <time>2018-10-18T19:41:06Z</time>
      </trkpt>
      <trkpt lat="44.55774" lon="6.15367">
        <ele>996</ele>
        <time>2018-10-18T19:42:06Z</time>
      </trkpt>
      <trkpt lat="44.55752" lon="6.15652">
        <ele>1009</ele>
        <time>2018-10-18T19:43:06Z</time>
      </trkpt>
      <trkpt lat="44.55549" lon="6.15889">
        <ele>1001</ele>
        <time>2018-10-18T19:44:06Z</time>
      </trkpt>
      <trkpt lat="44.55514" lon="6.1598">
        <ele>1010</ele>
        <time>2018-10-18T19:45:06Z</time>
      </trkpt>
      <trkpt lat="44.55432" lon="6.16041">
        <ele>1013</ele>
        <time>2018-10-18T19:46:06Z</time>
      </trkpt>
      <trkpt lat="44.5541" lon="6.16138">
        <ele>1015</ele>
        <time>2018-10-18T19:47:06Z</time>
      </trkpt>
      <trkpt lat="44.55376" lon="6.16156">
        <ele>1012</ele>
        <time>2018-10-18T19:48:06Z</time>
      </trkpt>
      <trkpt lat="44.55289" lon="6.16259">
        <ele>1007</ele>
        <time>2018-10-18T19:49:06Z</time>
      </trkpt>
      <trkpt lat="44.55224" lon="6.16417">
        <ele>1004</ele>
        <time>2018-10-18T19:50:06Z</time>
      </trkpt>
      <trkpt lat="44.55155" lon="6.16569">
        <ele>1008</ele>
        <time>2018-10-18T19:51:06Z</time>
      </trkpt>
      <trkpt lat="44.55099" lon="6.16915">
        <ele>1019</ele>
        <time>2018-10-18T19:52:06Z</time>
      </trkpt>
      <trkpt lat="44.54952" lon="6.17073">
        <ele>1019</ele>
        <time>2018-10-18T19:53:06Z</time>
      </trkpt>
      <trkpt lat="44.54844" lon="6.17097">
        <ele>1022</ele>
        <time>2018-10-18T19:54:06Z</time>
      </trkpt>
      <trkpt lat="44.54705" lon="6.17218">
        <ele>1019</ele>
        <time>2018-10-18T19:55:06Z</time>
      </trkpt>
      <trkpt lat="44.54589" lon="6.17224">
        <ele>1022</ele>
        <time>2018-10-18T19:56:06Z</time>
      </trkpt>
      <trkpt lat="44.54532" lon="6.17315">
        <ele>1026</ele>
        <time>2018-10-18T19:57:06Z</time>
      </trkpt>
      <trkpt lat="44.54641" lon="6.17516">
        <ele>1043</ele>
        <time>2018-10-18T19:58:06Z</time>
      </trkpt>
      <trkpt lat="44.54762" lon="6.17673">
        <ele>1057</ele>
        <time>2018-10-18T19:59:06Z</time>
      </trkpt>
      <trkpt lat="44.55199" lon="6.17795">
        <ele>1072</ele>
        <time>2018-10-18T20:00:06Z</time>
      </trkpt>
      <trkpt lat="44.5525" lon="6.17928">
        <ele>1063</ele>
        <time>2018-10-18T20:01:06Z</time>
      </trkpt>
      <trkpt lat="44.55276" lon="6.17783">
        <ele>1055</ele>
        <time>2018-10-18T20:02:06Z</time>
      </trkpt>
      <trkpt lat="44.55372" lon="6.17989">
        <ele>1034</ele>
        <time>2018-10-18T20:03:06Z</time>
      </trkpt>
      <trkpt lat="44.55432" lon="6.18214">
        <ele>1016</ele>
        <time>2018-10-18T20:04:06Z</time>
      </trkpt>
      <trkpt lat="44.5548" lon="6.18123">
        <ele>1017</ele>
        <time>2018-10-18T20:05:06Z</time>
      </trkpt>
      <trkpt lat="44.55601" lon="6.18256">
        <ele>993</ele>
        <time>2018-10-18T20:06:06Z</time>
      </trkpt>
      <trkpt lat="44.55601" lon="6.1839">
        <ele>988</ele>
        <time>2018-10-18T20:07:06Z</time>
      </trkpt>
      <trkpt lat="44.55618" lon="6.18572">
        <ele>967</ele>
        <time>2018-10-18T20:08:06Z</time>
      </trkpt>
      <trkpt lat="44.55717" lon="6.18286">
        <ele>958</ele>
        <time>2018-10-18T20:09:06Z</time>
      </trkpt>
      <trkpt lat="44.55856" lon="6.18001">
        <ele>934</ele>
        <time>2018-10-18T20:10:06Z</time>
      </trkpt>
      <trkpt lat="44.55852" lon="6.18735">
        <ele>915</ele>
        <time>2018-10-18T20:11:06Z</time>
      </trkpt>
      <trkpt lat="44.55964" lon="6.19603">
        <ele>850</ele>
        <time>2018-10-18T20:12:06Z</time>
      </trkpt>
      <trkpt lat="44.55856" lon="6.19506">
        <ele>853</ele>
        <time>2018-10-18T20:13:06Z</time>
      </trkpt>
      <trkpt lat="44.55618" lon="6.19446">
        <ele>855</ele>
        <time>2018-10-18T20:14:06Z</time>
      </trkpt>
      <trkpt lat="44.55471" lon="6.1947">
        <ele>849</ele>
        <time>2018-10-18T20:15:06Z</time>
      </trkpt>
      <trkpt lat="44.55376" lon="6.195">
        <ele>844</ele>
        <time>2018-10-18T20:16:06Z</time>
      </trkpt>
      <trkpt lat="44.55229" lon="6.19336">
        <ele>853</ele>
        <time>2018-10-18T20:17:06Z</time>
      </trkpt>
      <trkpt lat="44.55224" lon="6.19446">
        <ele>847</ele>
        <time>2018-10-18T20:18:06Z</time>
      </trkpt>
      <trkpt lat="44.55337" lon="6.19713">
        <ele>824</ele>
        <time>2018-10-18T20:19:06Z</time>
      </trkpt>
      <trkpt lat="44.55168" lon="6.19834">
        <ele>815</ele>
        <time>2018-10-18T20:20:06Z</time>
      </trkpt>
      <trkpt lat="44.55047" lon="6.19925">
        <ele>804</ele>
        <time>2018-10-18T20:21:06Z</time>
      </trkpt>
      <trkpt lat="44.55116" lon="6.20065">
        <ele>793</ele>
        <time>2018-10-18T20:22:06Z</time>
      </trkpt>
      <trkpt lat="44.5509" lon="6.20168">
        <ele>786</ele>
        <time>2018-10-18T20:23:06Z</time>
      </trkpt>
      <trkpt lat="44.55013" lon="6.20186">
        <ele>783</ele>
        <time>2018-10-18T20:24:06Z</time>
      </trkpt>
      <trkpt lat="44.55203" lon="6.20593">
        <ele>789</ele>
        <time>2018-10-18T20:25:06Z</time>
      </trkpt>
      <trkpt lat="44.55138" lon="6.20665">
        <ele>787</ele>
        <time>2018-10-18T20:26:06Z</time>
      </trkpt>
      <trkpt lat="44.55116" lon="6.20732">
        <ele>787</ele>
        <time>2018-10-18T20:27:06Z</time>
      </trkpt>
      <trkpt lat="44.54974" lon="6.20829">
        <ele>782</ele>
        <time>2018-10-18T20:28:06Z</time>
      </trkpt>
      <trkpt lat="44.54718" lon="6.20896">
        <ele>776</ele>
        <time>2018-10-18T20:29:06Z</time>
      </trkpt>
      <trkpt lat="44.54524" lon="6.20878">
        <ele>779</ele>
        <time>2018-10-18T20:30:06Z</time>
      </trkpt>
      <trkpt lat="44.54468" lon="6.20878">
        <ele>786</ele>
        <time>2018-10-18T20:31:06Z</time>
      </trkpt>
      <trkpt lat="44.54372" lon="6.20787">
        <ele>783</ele>
        <time>2018-10-18T20:32:06Z</time>
      </trkpt>
      <trkpt lat="44.54351" lon="6.20908">
        <ele>792</ele>
        <time>2018-10-18T20:33:06Z</time>
      </trkpt>
      <trkpt lat="44.54204" lon="6.21169">
        <ele>807</ele>
        <time>2018-10-18T20:34:06Z</time>
      </trkpt>
      <trkpt lat="44.54243" lon="6.21321">
        <ele>820</ele>
        <time>2018-10-18T20:35:06Z</time>
      </trkpt>
      <trkpt lat="44.54212" lon="6.214">
        <ele>823</ele>
        <time>2018-10-18T20:36:06Z</time>
      </trkpt>
      <trkpt lat="44.54117" lon="6.21369">
        <ele>842</ele>
        <time>2018-10-18T20:37:06Z</time>
      </trkpt>
      <trkpt lat="44.54039" lon="6.21278">
        <ele>850</ele>
        <time>2018-10-18T20:38:06Z</time>
      </trkpt>
      <trkpt lat="44.54026" lon="6.21382">
        <ele>865</ele>
        <time>2018-10-18T20:39:06Z</time>
      </trkpt>
      <trkpt lat="44.53905" lon="6.21285">
        <ele>877</ele>
        <time>2018-10-18T20:40:06Z</time>
      </trkpt>
      <trkpt lat="44.53901" lon="6.21624">
        <ele>908</ele>
        <time>2018-10-18T20:41:06Z</time>
      </trkpt>
      <trkpt lat="44.53879" lon="6.21928">
        <ele>932</ele>
        <time>2018-10-18T20:42:06Z</time>
      </trkpt>
      <trkpt lat="44.53615" lon="6.22268">
        <ele>972</ele>
        <time>2018-10-18T20:43:06Z</time>
      </trkpt>
      <trkpt lat="44.53628" lon="6.22589">
        <ele>992</ele>
        <time>2018-10-18T20:44:06Z</time>
      </trkpt>
      <trkpt lat="44.53827" lon="6.23743">
        <ele>1005</ele>
        <time>2018-10-18T20:45:06Z</time>
      </trkpt>
      <trkpt lat="44.53948" lon="6.23919">
        <ele>986</ele>
        <time>2018-10-18T20:46:06Z</time>
      </trkpt>
      <trkpt lat="44.53983" lon="6.24101">
        <ele>975</ele>
        <time>2018-10-18T20:47:06Z</time>
      </trkpt>
      <trkpt lat="44.54048" lon="6.24246">
        <ele>970</ele>
        <time>2018-10-18T20:48:06Z</time>
      </trkpt>
      <trkpt lat="44.54039" lon="6.24349">
        <ele>971</ele>
        <time>2018-10-18T20:49:06Z</time>
      </trkpt>
      <trkpt lat="44.54169" lon="6.2444">
        <ele>975</ele>
        <time>2018-10-18T20:50:06Z</time>
      </trkpt>
      <trkpt lat="44.54346" lon="6.24544">
        <ele>976</ele>
        <time>2018-10-18T20:51:06Z</time>
      </trkpt>
      <trkpt lat="44.54567" lon="6.24586">
        <ele>965</ele>
        <time>2018-10-18T20:52:06Z</time>
      </trkpt>
      <trkpt lat="44.54584" lon="6.24726">
        <ele>966</ele>
        <time>2018-10-18T20:53:06Z</time>
      </trkpt>
      <trkpt lat="44.54831" lon="6.24756">
        <ele>941</ele>
        <time>2018-10-18T20:54:06Z</time>
      </trkpt>
      <trkpt lat="44.54835" lon="6.24884">
        <ele>938</ele>
        <time>2018-10-18T20:55:06Z</time>
      </trkpt>
    </trkseg>
  </trk>
</gpx>